<?xml version="1.0" encoding="UTF-8" standalone="no" ?>
<gpx xmlns="http://www.topografix.com/GPX/1/1" xmlns:xsi="http://www.w3.org/2001/XMLSchema-instance" xsi:schemaLocation="http://www.topografix.com/GPX/1/1 http://www.topografix.com/GPX/1/1/gpx.xsd" version="1.1" creator="VisuGPX - https://www.visugpx.com">
  <metadata>
    <name>Col de Balafrasse - 2022-01-15</name>
  </metadata>
  <trk>
    <name><![CDATA[Col de Balafrasse - 2022-01-15]]></name>
    <trkseg>
      <trkpt lat="45.97782" lon="6.46893">
        <ele>1411.35</ele>
        <time>2022-01-15T09:01:59Z</time>
      </trkpt>
      <trkpt lat="45.97782" lon="6.46893">
        <ele>1411.35</ele>
        <time>2022-01-15T09:02:00Z</time>
      </trkpt>
      <trkpt lat="45.97783" lon="6.46894">
        <ele>1271.96</ele>
        <time>2022-01-15T09:02:06Z</time>
      </trkpt>
      <trkpt lat="45.97783" lon="6.46894">
        <ele>1271.96</ele>
        <time>2022-01-15T09:02:07Z</time>
      </trkpt>
      <trkpt lat="45.97788" lon="6.46897">
        <ele>1270.52</ele>
        <time>2022-01-15T09:02:15Z</time>
      </trkpt>
      <trkpt lat="45.97805" lon="6.46888">
        <ele>1271.96</ele>
        <time>2022-01-15T09:02:35Z</time>
      </trkpt>
      <trkpt lat="45.9781" lon="6.46886">
        <ele>1273.4</ele>
        <time>2022-01-15T09:02:41Z</time>
      </trkpt>
      <trkpt lat="45.97822" lon="6.46871">
        <ele>1274.85</ele>
        <time>2022-01-15T09:02:58Z</time>
      </trkpt>
      <trkpt lat="45.97836" lon="6.4686">
        <ele>1276.77</ele>
        <time>2022-01-15T09:03:13Z</time>
      </trkpt>
      <trkpt lat="45.97844" lon="6.46849">
        <ele>1278.69</ele>
        <time>2022-01-15T09:03:31Z</time>
      </trkpt>
      <trkpt lat="45.97853" lon="6.46833">
        <ele>1281.09</ele>
        <time>2022-01-15T09:03:48Z</time>
      </trkpt>
      <trkpt lat="45.97861" lon="6.46812">
        <ele>1283.98</ele>
        <time>2022-01-15T09:04:06Z</time>
      </trkpt>
      <trkpt lat="45.97868" lon="6.46787">
        <ele>1285.9</ele>
        <time>2022-01-15T09:04:26Z</time>
      </trkpt>
      <trkpt lat="45.97876" lon="6.46766">
        <ele>1288.78</ele>
        <time>2022-01-15T09:04:44Z</time>
      </trkpt>
      <trkpt lat="45.97886" lon="6.46745">
        <ele>1291.19</ele>
        <time>2022-01-15T09:05:03Z</time>
      </trkpt>
      <trkpt lat="45.97896" lon="6.46728">
        <ele>1294.07</ele>
        <time>2022-01-15T09:05:22Z</time>
      </trkpt>
      <trkpt lat="45.97909" lon="6.46712">
        <ele>1296.96</ele>
        <time>2022-01-15T09:05:41Z</time>
      </trkpt>
      <trkpt lat="45.97922" lon="6.46696">
        <ele>1298.88</ele>
        <time>2022-01-15T09:05:58Z</time>
      </trkpt>
      <trkpt lat="45.97935" lon="6.46684">
        <ele>1301.28</ele>
        <time>2022-01-15T09:06:14Z</time>
      </trkpt>
      <trkpt lat="45.9795" lon="6.46673">
        <ele>1303.69</ele>
        <time>2022-01-15T09:06:31Z</time>
      </trkpt>
      <trkpt lat="45.97962" lon="6.46659">
        <ele>1306.09</ele>
        <time>2022-01-15T09:06:50Z</time>
      </trkpt>
      <trkpt lat="45.97975" lon="6.46646">
        <ele>1308.97</ele>
        <time>2022-01-15T09:07:08Z</time>
      </trkpt>
      <trkpt lat="45.97986" lon="6.46637">
        <ele>1311.38</ele>
        <time>2022-01-15T09:07:23Z</time>
      </trkpt>
      <trkpt lat="45.98001" lon="6.46625">
        <ele>1313.78</ele>
        <time>2022-01-15T09:07:41Z</time>
      </trkpt>
      <trkpt lat="45.98015" lon="6.46614">
        <ele>1316.18</ele>
        <time>2022-01-15T09:07:59Z</time>
      </trkpt>
      <trkpt lat="45.9803" lon="6.46602">
        <ele>1318.59</ele>
        <time>2022-01-15T09:08:17Z</time>
      </trkpt>
      <trkpt lat="45.98045" lon="6.46595">
        <ele>1320.99</ele>
        <time>2022-01-15T09:08:34Z</time>
      </trkpt>
      <trkpt lat="45.98062" lon="6.46591">
        <ele>1323.87</ele>
        <time>2022-01-15T09:08:52Z</time>
      </trkpt>
      <trkpt lat="45.98075" lon="6.46589">
        <ele>1325.8</ele>
        <time>2022-01-15T09:09:07Z</time>
      </trkpt>
      <trkpt lat="45.9809" lon="6.46585">
        <ele>1327.72</ele>
        <time>2022-01-15T09:09:25Z</time>
      </trkpt>
      <trkpt lat="45.98095" lon="6.46584">
        <ele>1329.16</ele>
        <time>2022-01-15T09:09:30Z</time>
      </trkpt>
      <trkpt lat="45.9811" lon="6.46581">
        <ele>1331.08</ele>
        <time>2022-01-15T09:09:48Z</time>
      </trkpt>
      <trkpt lat="45.9812" lon="6.46576">
        <ele>1333.01</ele>
        <time>2022-01-15T09:10:00Z</time>
      </trkpt>
      <trkpt lat="45.98135" lon="6.46571">
        <ele>1334.93</ele>
        <time>2022-01-15T09:10:19Z</time>
      </trkpt>
      <trkpt lat="45.98151" lon="6.46567">
        <ele>1337.33</ele>
        <time>2022-01-15T09:10:37Z</time>
      </trkpt>
      <trkpt lat="45.98167" lon="6.46564">
        <ele>1339.73</ele>
        <time>2022-01-15T09:10:54Z</time>
      </trkpt>
      <trkpt lat="45.98184" lon="6.46559">
        <ele>1342.14</ele>
        <time>2022-01-15T09:11:14Z</time>
      </trkpt>
      <trkpt lat="45.98198" lon="6.46558">
        <ele>1345.02</ele>
        <time>2022-01-15T09:11:31Z</time>
      </trkpt>
      <trkpt lat="45.98208" lon="6.46554">
        <ele>1346.46</ele>
        <time>2022-01-15T09:11:44Z</time>
      </trkpt>
      <trkpt lat="45.98226" lon="6.4655">
        <ele>1349.35</ele>
        <time>2022-01-15T09:12:03Z</time>
      </trkpt>
      <trkpt lat="45.98239" lon="6.46546">
        <ele>1350.79</ele>
        <time>2022-01-15T09:12:19Z</time>
      </trkpt>
      <trkpt lat="45.98253" lon="6.46541">
        <ele>1353.19</ele>
        <time>2022-01-15T09:12:35Z</time>
      </trkpt>
      <trkpt lat="45.98269" lon="6.46535">
        <ele>1355.6</ele>
        <time>2022-01-15T09:12:52Z</time>
      </trkpt>
      <trkpt lat="45.98284" lon="6.46533">
        <ele>1358.48</ele>
        <time>2022-01-15T09:13:11Z</time>
      </trkpt>
      <trkpt lat="45.98295" lon="6.46532">
        <ele>1359.44</ele>
        <time>2022-01-15T09:13:26Z</time>
      </trkpt>
      <trkpt lat="45.98304" lon="6.46531">
        <ele>1360.88</ele>
        <time>2022-01-15T09:13:42Z</time>
      </trkpt>
      <trkpt lat="45.98307" lon="6.46531">
        <ele>1361.84</ele>
        <time>2022-01-15T09:13:46Z</time>
      </trkpt>
      <trkpt lat="45.9832" lon="6.46537">
        <ele>1363.29</ele>
        <time>2022-01-15T09:14:04Z</time>
      </trkpt>
      <trkpt lat="45.98329" lon="6.46544">
        <ele>1363.77</ele>
        <time>2022-01-15T09:14:20Z</time>
      </trkpt>
      <trkpt lat="45.98331" lon="6.46546">
        <ele>1365.69</ele>
        <time>2022-01-15T09:14:23Z</time>
      </trkpt>
      <trkpt lat="45.98351" lon="6.46551">
        <ele>1367.61</ele>
        <time>2022-01-15T09:14:43Z</time>
      </trkpt>
      <trkpt lat="45.98351" lon="6.46552">
        <ele>1367.61</ele>
        <time>2022-01-15T09:14:44Z</time>
      </trkpt>
      <trkpt lat="45.98367" lon="6.46557">
        <ele>1370.5</ele>
        <time>2022-01-15T09:15:02Z</time>
      </trkpt>
      <trkpt lat="45.98383" lon="6.46564">
        <ele>1372.42</ele>
        <time>2022-01-15T09:15:21Z</time>
      </trkpt>
      <trkpt lat="45.984" lon="6.46567">
        <ele>1374.34</ele>
        <time>2022-01-15T09:15:38Z</time>
      </trkpt>
      <trkpt lat="45.98415" lon="6.46573">
        <ele>1377.23</ele>
        <time>2022-01-15T09:15:59Z</time>
      </trkpt>
      <trkpt lat="45.98429" lon="6.4658">
        <ele>1379.15</ele>
        <time>2022-01-15T09:16:18Z</time>
      </trkpt>
      <trkpt lat="45.98442" lon="6.46584">
        <ele>1382.03</ele>
        <time>2022-01-15T09:16:34Z</time>
      </trkpt>
      <trkpt lat="45.98459" lon="6.4659">
        <ele>1383.47</ele>
        <time>2022-01-15T09:16:53Z</time>
      </trkpt>
      <trkpt lat="45.98475" lon="6.46595">
        <ele>1386.36</ele>
        <time>2022-01-15T09:17:11Z</time>
      </trkpt>
      <trkpt lat="45.98491" lon="6.46601">
        <ele>1387.8</ele>
        <time>2022-01-15T09:17:29Z</time>
      </trkpt>
      <trkpt lat="45.98509" lon="6.46606">
        <ele>1389.72</ele>
        <time>2022-01-15T09:17:48Z</time>
      </trkpt>
      <trkpt lat="45.98525" lon="6.46616">
        <ele>1392.13</ele>
        <time>2022-01-15T09:18:08Z</time>
      </trkpt>
      <trkpt lat="45.98539" lon="6.46627">
        <ele>1394.53</ele>
        <time>2022-01-15T09:18:26Z</time>
      </trkpt>
      <trkpt lat="45.98553" lon="6.46637">
        <ele>1397.41</ele>
        <time>2022-01-15T09:18:44Z</time>
      </trkpt>
      <trkpt lat="45.9857" lon="6.46652">
        <ele>1399.82</ele>
        <time>2022-01-15T09:19:04Z</time>
      </trkpt>
      <trkpt lat="45.98571" lon="6.46653">
        <ele>1399.82</ele>
        <time>2022-01-15T09:19:06Z</time>
      </trkpt>
      <trkpt lat="45.98584" lon="6.4667">
        <ele>1402.22</ele>
        <time>2022-01-15T09:19:28Z</time>
      </trkpt>
      <trkpt lat="45.98594" lon="6.46682">
        <ele>1404.14</ele>
        <time>2022-01-15T09:19:45Z</time>
      </trkpt>
      <trkpt lat="45.98602" lon="6.46696">
        <ele>1406.07</ele>
        <time>2022-01-15T09:20:03Z</time>
      </trkpt>
      <trkpt lat="45.98612" lon="6.46716">
        <ele>1408.47</ele>
        <time>2022-01-15T09:20:21Z</time>
      </trkpt>
      <trkpt lat="45.9862" lon="6.46736">
        <ele>1410.87</ele>
        <time>2022-01-15T09:20:41Z</time>
      </trkpt>
      <trkpt lat="45.9863" lon="6.46755">
        <ele>1412.79</ele>
        <time>2022-01-15T09:20:59Z</time>
      </trkpt>
      <trkpt lat="45.98641" lon="6.46777">
        <ele>1414.72</ele>
        <time>2022-01-15T09:21:19Z</time>
      </trkpt>
      <trkpt lat="45.98645" lon="6.46786">
        <ele>1415.68</ele>
        <time>2022-01-15T09:21:26Z</time>
      </trkpt>
      <trkpt lat="45.98648" lon="6.46804">
        <ele>1417.6</ele>
        <time>2022-01-15T09:21:44Z</time>
      </trkpt>
      <trkpt lat="45.98656" lon="6.46829">
        <ele>1420</ele>
        <time>2022-01-15T09:22:03Z</time>
      </trkpt>
      <trkpt lat="45.98664" lon="6.46849">
        <ele>1421.93</ele>
        <time>2022-01-15T09:22:23Z</time>
      </trkpt>
      <trkpt lat="45.98673" lon="6.46869">
        <ele>1423.85</ele>
        <time>2022-01-15T09:22:40Z</time>
      </trkpt>
      <trkpt lat="45.98682" lon="6.46889">
        <ele>1426.25</ele>
        <time>2022-01-15T09:22:57Z</time>
      </trkpt>
      <trkpt lat="45.9869" lon="6.46907">
        <ele>1427.21</ele>
        <time>2022-01-15T09:23:13Z</time>
      </trkpt>
      <trkpt lat="45.98691" lon="6.46908">
        <ele>1427.7</ele>
        <time>2022-01-15T09:23:15Z</time>
      </trkpt>
      <trkpt lat="45.98694" lon="6.46915">
        <ele>1428.18</ele>
        <time>2022-01-15T09:23:21Z</time>
      </trkpt>
      <trkpt lat="45.98702" lon="6.46937">
        <ele>1430.58</ele>
        <time>2022-01-15T09:23:41Z</time>
      </trkpt>
      <trkpt lat="45.98705" lon="6.46947">
        <ele>1431.54</ele>
        <time>2022-01-15T09:23:52Z</time>
      </trkpt>
      <trkpt lat="45.98709" lon="6.46953">
        <ele>1432.02</ele>
        <time>2022-01-15T09:23:57Z</time>
      </trkpt>
      <trkpt lat="45.98714" lon="6.46968">
        <ele>1433.46</ele>
        <time>2022-01-15T09:24:09Z</time>
      </trkpt>
      <trkpt lat="45.98719" lon="6.46977">
        <ele>1434.42</ele>
        <time>2022-01-15T09:24:18Z</time>
      </trkpt>
      <trkpt lat="45.98732" lon="6.46997">
        <ele>1436.83</ele>
        <time>2022-01-15T09:24:40Z</time>
      </trkpt>
      <trkpt lat="45.9874" lon="6.47013">
        <ele>1438.27</ele>
        <time>2022-01-15T09:24:57Z</time>
      </trkpt>
      <trkpt lat="45.98747" lon="6.47026">
        <ele>1440.19</ele>
        <time>2022-01-15T09:25:11Z</time>
      </trkpt>
      <trkpt lat="45.98755" lon="6.47045">
        <ele>1441.63</ele>
        <time>2022-01-15T09:25:29Z</time>
      </trkpt>
      <trkpt lat="45.9876" lon="6.47054">
        <ele>1442.6</ele>
        <time>2022-01-15T09:25:49Z</time>
      </trkpt>
      <trkpt lat="45.9876" lon="6.47054">
        <ele>1444.04</ele>
        <time>2022-01-15T09:25:59Z</time>
      </trkpt>
      <trkpt lat="45.98757" lon="6.47047">
        <ele>1444.52</ele>
        <time>2022-01-15T09:26:36Z</time>
      </trkpt>
      <trkpt lat="45.98764" lon="6.47065">
        <ele>1445</ele>
        <time>2022-01-15T09:26:59Z</time>
      </trkpt>
      <trkpt lat="45.98772" lon="6.47076">
        <ele>1447.88</ele>
        <time>2022-01-15T09:27:19Z</time>
      </trkpt>
      <trkpt lat="45.98778" lon="6.47087">
        <ele>1451.25</ele>
        <time>2022-01-15T09:27:33Z</time>
      </trkpt>
      <trkpt lat="45.98783" lon="6.47101">
        <ele>1454.61</ele>
        <time>2022-01-15T09:27:51Z</time>
      </trkpt>
      <trkpt lat="45.98787" lon="6.47112">
        <ele>1455.09</ele>
        <time>2022-01-15T09:28:01Z</time>
      </trkpt>
      <trkpt lat="45.98789" lon="6.47118">
        <ele>1455.09</ele>
        <time>2022-01-15T09:28:05Z</time>
      </trkpt>
      <trkpt lat="45.98797" lon="6.47133">
        <ele>1455.09</ele>
        <time>2022-01-15T09:28:19Z</time>
      </trkpt>
      <trkpt lat="45.98801" lon="6.47146">
        <ele>1456.05</ele>
        <time>2022-01-15T09:28:30Z</time>
      </trkpt>
      <trkpt lat="45.98809" lon="6.47161">
        <ele>1458.46</ele>
        <time>2022-01-15T09:28:46Z</time>
      </trkpt>
      <trkpt lat="45.98813" lon="6.47172">
        <ele>1459.9</ele>
        <time>2022-01-15T09:28:59Z</time>
      </trkpt>
      <trkpt lat="45.98816" lon="6.47184">
        <ele>1463.26</ele>
        <time>2022-01-15T09:29:17Z</time>
      </trkpt>
      <trkpt lat="45.98816" lon="6.47203">
        <ele>1465.67</ele>
        <time>2022-01-15T09:29:35Z</time>
      </trkpt>
      <trkpt lat="45.98818" lon="6.4722">
        <ele>1469.03</ele>
        <time>2022-01-15T09:29:53Z</time>
      </trkpt>
      <trkpt lat="45.98826" lon="6.47223">
        <ele>1471.92</ele>
        <time>2022-01-15T09:30:07Z</time>
      </trkpt>
      <trkpt lat="45.98838" lon="6.47225">
        <ele>1474.8</ele>
        <time>2022-01-15T09:30:28Z</time>
      </trkpt>
      <trkpt lat="45.98839" lon="6.47225">
        <ele>1474.8</ele>
        <time>2022-01-15T09:30:29Z</time>
      </trkpt>
      <trkpt lat="45.98846" lon="6.47224">
        <ele>1475.76</ele>
        <time>2022-01-15T09:30:37Z</time>
      </trkpt>
      <trkpt lat="45.98858" lon="6.47223">
        <ele>1478.65</ele>
        <time>2022-01-15T09:30:53Z</time>
      </trkpt>
      <trkpt lat="45.9887" lon="6.4723">
        <ele>1481.53</ele>
        <time>2022-01-15T09:31:12Z</time>
      </trkpt>
      <trkpt lat="45.98879" lon="6.47238">
        <ele>1484.89</ele>
        <time>2022-01-15T09:31:28Z</time>
      </trkpt>
      <trkpt lat="45.98884" lon="6.47246">
        <ele>1486.34</ele>
        <time>2022-01-15T09:31:42Z</time>
      </trkpt>
      <trkpt lat="45.98891" lon="6.47261">
        <ele>1489.22</ele>
        <time>2022-01-15T09:32:01Z</time>
      </trkpt>
      <trkpt lat="45.98899" lon="6.4727">
        <ele>1491.14</ele>
        <time>2022-01-15T09:32:19Z</time>
      </trkpt>
      <trkpt lat="45.98905" lon="6.47278">
        <ele>1494.03</ele>
        <time>2022-01-15T09:32:31Z</time>
      </trkpt>
      <trkpt lat="45.98908" lon="6.47287">
        <ele>1495.47</ele>
        <time>2022-01-15T09:32:44Z</time>
      </trkpt>
      <trkpt lat="45.98915" lon="6.47296">
        <ele>1498.35</ele>
        <time>2022-01-15T09:32:59Z</time>
      </trkpt>
      <trkpt lat="45.98922" lon="6.47309">
        <ele>1501.24</ele>
        <time>2022-01-15T09:33:19Z</time>
      </trkpt>
      <trkpt lat="45.98931" lon="6.47323">
        <ele>1503.64</ele>
        <time>2022-01-15T09:33:39Z</time>
      </trkpt>
      <trkpt lat="45.9894" lon="6.47333">
        <ele>1506.52</ele>
        <time>2022-01-15T09:33:55Z</time>
      </trkpt>
      <trkpt lat="45.98948" lon="6.47348">
        <ele>1509.41</ele>
        <time>2022-01-15T09:34:13Z</time>
      </trkpt>
      <trkpt lat="45.9896" lon="6.47356">
        <ele>1510.85</ele>
        <time>2022-01-15T09:34:30Z</time>
      </trkpt>
      <trkpt lat="45.98974" lon="6.47356">
        <ele>1514.21</ele>
        <time>2022-01-15T09:34:51Z</time>
      </trkpt>
      <trkpt lat="45.98987" lon="6.47356">
        <ele>1516.62</ele>
        <time>2022-01-15T09:35:09Z</time>
      </trkpt>
      <trkpt lat="45.98992" lon="6.47354">
        <ele>1517.1</ele>
        <time>2022-01-15T09:35:14Z</time>
      </trkpt>
      <trkpt lat="45.98997" lon="6.47354">
        <ele>1517.58</ele>
        <time>2022-01-15T09:35:21Z</time>
      </trkpt>
      <trkpt lat="45.99012" lon="6.4735">
        <ele>1519.5</ele>
        <time>2022-01-15T09:35:36Z</time>
      </trkpt>
      <trkpt lat="45.99021" lon="6.47347">
        <ele>1522.87</ele>
        <time>2022-01-15T09:35:51Z</time>
      </trkpt>
      <trkpt lat="45.99023" lon="6.47347">
        <ele>1523.83</ele>
        <time>2022-01-15T09:35:55Z</time>
      </trkpt>
      <trkpt lat="45.99033" lon="6.47353">
        <ele>1526.71</ele>
        <time>2022-01-15T09:36:13Z</time>
      </trkpt>
      <trkpt lat="45.9904" lon="6.47361">
        <ele>1528.15</ele>
        <time>2022-01-15T09:36:27Z</time>
      </trkpt>
      <trkpt lat="45.99047" lon="6.47367">
        <ele>1530.08</ele>
        <time>2022-01-15T09:36:40Z</time>
      </trkpt>
      <trkpt lat="45.99058" lon="6.47379">
        <ele>1532.48</ele>
        <time>2022-01-15T09:36:58Z</time>
      </trkpt>
      <trkpt lat="45.9907" lon="6.47393">
        <ele>1532.96</ele>
        <time>2022-01-15T09:37:14Z</time>
      </trkpt>
      <trkpt lat="45.9908" lon="6.47406">
        <ele>1535.84</ele>
        <time>2022-01-15T09:37:30Z</time>
      </trkpt>
      <trkpt lat="45.99083" lon="6.47408">
        <ele>1535.84</ele>
        <time>2022-01-15T09:37:34Z</time>
      </trkpt>
      <trkpt lat="45.99092" lon="6.47422">
        <ele>1538.73</ele>
        <time>2022-01-15T09:37:51Z</time>
      </trkpt>
      <trkpt lat="45.99102" lon="6.47436">
        <ele>1541.13</ele>
        <time>2022-01-15T09:38:08Z</time>
      </trkpt>
      <trkpt lat="45.99108" lon="6.47445">
        <ele>1539.69</ele>
        <time>2022-01-15T09:38:16Z</time>
      </trkpt>
      <trkpt lat="45.99119" lon="6.47455">
        <ele>1543.53</ele>
        <time>2022-01-15T09:38:33Z</time>
      </trkpt>
      <trkpt lat="45.99129" lon="6.47464">
        <ele>1546.42</ele>
        <time>2022-01-15T09:38:50Z</time>
      </trkpt>
      <trkpt lat="45.99138" lon="6.47473">
        <ele>1548.34</ele>
        <time>2022-01-15T09:39:05Z</time>
      </trkpt>
      <trkpt lat="45.99142" lon="6.47477">
        <ele>1548.82</ele>
        <time>2022-01-15T09:39:11Z</time>
      </trkpt>
      <trkpt lat="45.99159" lon="6.47485">
        <ele>1551.71</ele>
        <time>2022-01-15T09:39:32Z</time>
      </trkpt>
      <trkpt lat="45.99172" lon="6.47489">
        <ele>1554.59</ele>
        <time>2022-01-15T09:39:49Z</time>
      </trkpt>
      <trkpt lat="45.99183" lon="6.47494">
        <ele>1557.95</ele>
        <time>2022-01-15T09:40:04Z</time>
      </trkpt>
      <trkpt lat="45.99193" lon="6.47502">
        <ele>1560.36</ele>
        <time>2022-01-15T09:40:21Z</time>
      </trkpt>
      <trkpt lat="45.99204" lon="6.47515">
        <ele>1561.32</ele>
        <time>2022-01-15T09:40:35Z</time>
      </trkpt>
      <trkpt lat="45.99213" lon="6.47532">
        <ele>1562.76</ele>
        <time>2022-01-15T09:40:53Z</time>
      </trkpt>
      <trkpt lat="45.99217" lon="6.47534">
        <ele>1562.28</ele>
        <time>2022-01-15T09:41:10Z</time>
      </trkpt>
      <trkpt lat="45.99218" lon="6.47534">
        <ele>1562.76</ele>
        <time>2022-01-15T09:41:35Z</time>
      </trkpt>
      <trkpt lat="45.99216" lon="6.47535">
        <ele>1564.68</ele>
        <time>2022-01-15T09:41:48Z</time>
      </trkpt>
      <trkpt lat="45.99216" lon="6.47535">
        <ele>1562.76</ele>
        <time>2022-01-15T09:41:50Z</time>
      </trkpt>
      <trkpt lat="45.99218" lon="6.47533">
        <ele>1565.64</ele>
        <time>2022-01-15T09:41:52Z</time>
      </trkpt>
      <trkpt lat="45.99218" lon="6.47532">
        <ele>1564.2</ele>
        <time>2022-01-15T09:41:53Z</time>
      </trkpt>
      <trkpt lat="45.99219" lon="6.47531">
        <ele>1566.61</ele>
        <time>2022-01-15T09:41:54Z</time>
      </trkpt>
      <trkpt lat="45.99219" lon="6.47531">
        <ele>1565.16</ele>
        <time>2022-01-15T09:41:56Z</time>
      </trkpt>
      <trkpt lat="45.99219" lon="6.47535">
        <ele>1566.12</ele>
        <time>2022-01-15T09:42:04Z</time>
      </trkpt>
      <trkpt lat="45.99229" lon="6.47536">
        <ele>1568.05</ele>
        <time>2022-01-15T09:42:20Z</time>
      </trkpt>
      <trkpt lat="45.99231" lon="6.47522">
        <ele>1569.49</ele>
        <time>2022-01-15T09:42:35Z</time>
      </trkpt>
      <trkpt lat="45.99233" lon="6.47504">
        <ele>1571.41</ele>
        <time>2022-01-15T09:42:54Z</time>
      </trkpt>
      <trkpt lat="45.99235" lon="6.4749">
        <ele>1573.82</ele>
        <time>2022-01-15T09:43:09Z</time>
      </trkpt>
      <trkpt lat="45.99232" lon="6.47473">
        <ele>1575.74</ele>
        <time>2022-01-15T09:43:25Z</time>
      </trkpt>
      <trkpt lat="45.99231" lon="6.47472">
        <ele>1574.78</ele>
        <time>2022-01-15T09:43:27Z</time>
      </trkpt>
      <trkpt lat="45.9923" lon="6.47469">
        <ele>1576.22</ele>
        <time>2022-01-15T09:43:29Z</time>
      </trkpt>
      <trkpt lat="45.99227" lon="6.47457">
        <ele>1578.14</ele>
        <time>2022-01-15T09:43:45Z</time>
      </trkpt>
      <trkpt lat="45.99227" lon="6.47456">
        <ele>1576.7</ele>
        <time>2022-01-15T09:43:46Z</time>
      </trkpt>
      <trkpt lat="45.99227" lon="6.47454">
        <ele>1576.22</ele>
        <time>2022-01-15T09:43:55Z</time>
      </trkpt>
      <trkpt lat="45.99227" lon="6.47454">
        <ele>1578.14</ele>
        <time>2022-01-15T09:43:56Z</time>
      </trkpt>
      <trkpt lat="45.99227" lon="6.47454">
        <ele>1576.22</ele>
        <time>2022-01-15T09:43:58Z</time>
      </trkpt>
      <trkpt lat="45.99227" lon="6.47454">
        <ele>1578.14</ele>
        <time>2022-01-15T09:43:59Z</time>
      </trkpt>
      <trkpt lat="45.99227" lon="6.47453">
        <ele>1576.7</ele>
        <time>2022-01-15T09:44:00Z</time>
      </trkpt>
      <trkpt lat="45.99226" lon="6.47452">
        <ele>1578.14</ele>
        <time>2022-01-15T09:44:01Z</time>
      </trkpt>
      <trkpt lat="45.99226" lon="6.47451">
        <ele>1576.7</ele>
        <time>2022-01-15T09:44:02Z</time>
      </trkpt>
      <trkpt lat="45.99225" lon="6.47447">
        <ele>1577.66</ele>
        <time>2022-01-15T09:44:08Z</time>
      </trkpt>
      <trkpt lat="45.99226" lon="6.47447">
        <ele>1577.18</ele>
        <time>2022-01-15T09:44:21Z</time>
      </trkpt>
      <trkpt lat="45.99226" lon="6.47447">
        <ele>1578.62</ele>
        <time>2022-01-15T09:44:22Z</time>
      </trkpt>
      <trkpt lat="45.99226" lon="6.47447">
        <ele>1576.7</ele>
        <time>2022-01-15T09:44:23Z</time>
      </trkpt>
      <trkpt lat="45.99226" lon="6.47447">
        <ele>1578.62</ele>
        <time>2022-01-15T09:44:24Z</time>
      </trkpt>
      <trkpt lat="45.99226" lon="6.47447">
        <ele>1576.7</ele>
        <time>2022-01-15T09:44:25Z</time>
      </trkpt>
      <trkpt lat="45.99227" lon="6.47447">
        <ele>1578.62</ele>
        <time>2022-01-15T09:44:26Z</time>
      </trkpt>
      <trkpt lat="45.99226" lon="6.47449">
        <ele>1577.18</ele>
        <time>2022-01-15T09:44:37Z</time>
      </trkpt>
      <trkpt lat="45.99226" lon="6.4745">
        <ele>1579.1</ele>
        <time>2022-01-15T09:44:40Z</time>
      </trkpt>
      <trkpt lat="45.9922" lon="6.47452">
        <ele>1578.62</ele>
        <time>2022-01-15T09:44:44Z</time>
      </trkpt>
      <trkpt lat="45.9922" lon="6.4745">
        <ele>1577.18</ele>
        <time>2022-01-15T09:44:53Z</time>
      </trkpt>
      <trkpt lat="45.99223" lon="6.47438">
        <ele>1580.54</ele>
        <time>2022-01-15T09:45:13Z</time>
      </trkpt>
      <trkpt lat="45.9922" lon="6.47432">
        <ele>1580.54</ele>
        <time>2022-01-15T09:45:22Z</time>
      </trkpt>
      <trkpt lat="45.9922" lon="6.47421">
        <ele>1583.91</ele>
        <time>2022-01-15T09:45:37Z</time>
      </trkpt>
      <trkpt lat="45.99218" lon="6.47412">
        <ele>1587.27</ele>
        <time>2022-01-15T09:45:52Z</time>
      </trkpt>
      <trkpt lat="45.99217" lon="6.47405">
        <ele>1590.64</ele>
        <time>2022-01-15T09:46:09Z</time>
      </trkpt>
      <trkpt lat="45.99218" lon="6.47396">
        <ele>1590.64</ele>
        <time>2022-01-15T09:46:18Z</time>
      </trkpt>
      <trkpt lat="45.99221" lon="6.47386">
        <ele>1593.52</ele>
        <time>2022-01-15T09:46:32Z</time>
      </trkpt>
      <trkpt lat="45.99219" lon="6.47368">
        <ele>1595.45</ele>
        <time>2022-01-15T09:46:52Z</time>
      </trkpt>
      <trkpt lat="45.99221" lon="6.47359">
        <ele>1598.81</ele>
        <time>2022-01-15T09:47:03Z</time>
      </trkpt>
      <trkpt lat="45.99218" lon="6.47342">
        <ele>1600.73</ele>
        <time>2022-01-15T09:47:20Z</time>
      </trkpt>
      <trkpt lat="45.99219" lon="6.4733">
        <ele>1604.1</ele>
        <time>2022-01-15T09:47:37Z</time>
      </trkpt>
      <trkpt lat="45.99222" lon="6.47322">
        <ele>1607.46</ele>
        <time>2022-01-15T09:47:53Z</time>
      </trkpt>
      <trkpt lat="45.99231" lon="6.47337">
        <ele>1610.83</ele>
        <time>2022-01-15T09:48:15Z</time>
      </trkpt>
      <trkpt lat="45.99234" lon="6.47338">
        <ele>1610.83</ele>
        <time>2022-01-15T09:48:20Z</time>
      </trkpt>
      <trkpt lat="45.99242" lon="6.47342">
        <ele>1614.19</ele>
        <time>2022-01-15T09:48:32Z</time>
      </trkpt>
      <trkpt lat="45.99252" lon="6.47352">
        <ele>1616.59</ele>
        <time>2022-01-15T09:48:54Z</time>
      </trkpt>
      <trkpt lat="45.99263" lon="6.47344">
        <ele>1619</ele>
        <time>2022-01-15T09:49:11Z</time>
      </trkpt>
      <trkpt lat="45.99272" lon="6.47339">
        <ele>1621.88</ele>
        <time>2022-01-15T09:49:29Z</time>
      </trkpt>
      <trkpt lat="45.99278" lon="6.47341">
        <ele>1625.25</ele>
        <time>2022-01-15T09:49:39Z</time>
      </trkpt>
      <trkpt lat="45.99288" lon="6.47338">
        <ele>1627.65</ele>
        <time>2022-01-15T09:49:59Z</time>
      </trkpt>
      <trkpt lat="45.99295" lon="6.47339">
        <ele>1631.01</ele>
        <time>2022-01-15T09:50:12Z</time>
      </trkpt>
      <trkpt lat="45.99302" lon="6.4735">
        <ele>1633.42</ele>
        <time>2022-01-15T09:50:31Z</time>
      </trkpt>
      <trkpt lat="45.99308" lon="6.47357">
        <ele>1636.78</ele>
        <time>2022-01-15T09:50:44Z</time>
      </trkpt>
      <trkpt lat="45.99314" lon="6.47359">
        <ele>1640.15</ele>
        <time>2022-01-15T09:50:59Z</time>
      </trkpt>
      <trkpt lat="45.99321" lon="6.4737">
        <ele>1643.51</ele>
        <time>2022-01-15T09:51:21Z</time>
      </trkpt>
      <trkpt lat="45.99325" lon="6.47383">
        <ele>1646.4</ele>
        <time>2022-01-15T09:51:38Z</time>
      </trkpt>
      <trkpt lat="45.99332" lon="6.47393">
        <ele>1649.76</ele>
        <time>2022-01-15T09:51:56Z</time>
      </trkpt>
      <trkpt lat="45.99332" lon="6.47394">
        <ele>1649.76</ele>
        <time>2022-01-15T09:51:57Z</time>
      </trkpt>
      <trkpt lat="45.99341" lon="6.474">
        <ele>1653.12</ele>
        <time>2022-01-15T09:52:14Z</time>
      </trkpt>
      <trkpt lat="45.99351" lon="6.47402">
        <ele>1656.49</ele>
        <time>2022-01-15T09:52:32Z</time>
      </trkpt>
      <trkpt lat="45.99357" lon="6.47392">
        <ele>1659.37</ele>
        <time>2022-01-15T09:52:54Z</time>
      </trkpt>
      <trkpt lat="45.99361" lon="6.47388">
        <ele>1662.26</ele>
        <time>2022-01-15T09:53:01Z</time>
      </trkpt>
      <trkpt lat="45.99366" lon="6.4739">
        <ele>1663.7</ele>
        <time>2022-01-15T09:53:12Z</time>
      </trkpt>
      <trkpt lat="45.99377" lon="6.47395">
        <ele>1667.06</ele>
        <time>2022-01-15T09:53:30Z</time>
      </trkpt>
      <trkpt lat="45.99388" lon="6.47401">
        <ele>1669.47</ele>
        <time>2022-01-15T09:53:48Z</time>
      </trkpt>
      <trkpt lat="45.99396" lon="6.47409">
        <ele>1672.35</ele>
        <time>2022-01-15T09:54:02Z</time>
      </trkpt>
      <trkpt lat="45.99405" lon="6.47418">
        <ele>1675.23</ele>
        <time>2022-01-15T09:54:25Z</time>
      </trkpt>
      <trkpt lat="45.99415" lon="6.47422">
        <ele>1678.6</ele>
        <time>2022-01-15T09:54:41Z</time>
      </trkpt>
      <trkpt lat="45.99427" lon="6.47434">
        <ele>1681.48</ele>
        <time>2022-01-15T09:55:02Z</time>
      </trkpt>
      <trkpt lat="45.99437" lon="6.47442">
        <ele>1683.89</ele>
        <time>2022-01-15T09:55:22Z</time>
      </trkpt>
      <trkpt lat="45.9944" lon="6.47446">
        <ele>1685.33</ele>
        <time>2022-01-15T09:55:29Z</time>
      </trkpt>
      <trkpt lat="45.99447" lon="6.47451">
        <ele>1686.29</ele>
        <time>2022-01-15T09:55:47Z</time>
      </trkpt>
      <trkpt lat="45.99447" lon="6.47448">
        <ele>1687.73</ele>
        <time>2022-01-15T09:55:51Z</time>
      </trkpt>
      <trkpt lat="45.99447" lon="6.47437">
        <ele>1691.1</ele>
        <time>2022-01-15T09:56:04Z</time>
      </trkpt>
      <trkpt lat="45.99451" lon="6.47423">
        <ele>1694.46</ele>
        <time>2022-01-15T09:56:23Z</time>
      </trkpt>
      <trkpt lat="45.99453" lon="6.47426">
        <ele>1695.42</ele>
        <time>2022-01-15T09:56:29Z</time>
      </trkpt>
      <trkpt lat="45.99454" lon="6.47431">
        <ele>1693.98</ele>
        <time>2022-01-15T09:56:33Z</time>
      </trkpt>
      <trkpt lat="45.99459" lon="6.47442">
        <ele>1695.9</ele>
        <time>2022-01-15T09:56:43Z</time>
      </trkpt>
      <trkpt lat="45.99467" lon="6.47451">
        <ele>1699.27</ele>
        <time>2022-01-15T09:56:58Z</time>
      </trkpt>
      <trkpt lat="45.99479" lon="6.47459">
        <ele>1700.71</ele>
        <time>2022-01-15T09:57:18Z</time>
      </trkpt>
      <trkpt lat="45.9949" lon="6.47459">
        <ele>1704.55</ele>
        <time>2022-01-15T09:57:34Z</time>
      </trkpt>
      <trkpt lat="45.99491" lon="6.47459">
        <ele>1705.04</ele>
        <time>2022-01-15T09:57:35Z</time>
      </trkpt>
      <trkpt lat="45.995" lon="6.47459">
        <ele>1707.92</ele>
        <time>2022-01-15T09:57:49Z</time>
      </trkpt>
      <trkpt lat="45.9951" lon="6.47463">
        <ele>1711.28</ele>
        <time>2022-01-15T09:58:08Z</time>
      </trkpt>
      <trkpt lat="45.99516" lon="6.47466">
        <ele>1712.25</ele>
        <time>2022-01-15T09:58:18Z</time>
      </trkpt>
      <trkpt lat="45.99532" lon="6.4748">
        <ele>1712.73</ele>
        <time>2022-01-15T09:58:33Z</time>
      </trkpt>
      <trkpt lat="45.99541" lon="6.4749">
        <ele>1711.28</ele>
        <time>2022-01-15T09:58:40Z</time>
      </trkpt>
      <trkpt lat="45.99557" lon="6.47512">
        <ele>1710.32</ele>
        <time>2022-01-15T09:58:55Z</time>
      </trkpt>
      <trkpt lat="45.99571" lon="6.47533">
        <ele>1708.88</ele>
        <time>2022-01-15T09:59:08Z</time>
      </trkpt>
      <trkpt lat="45.99582" lon="6.47552">
        <ele>1710.32</ele>
        <time>2022-01-15T09:59:22Z</time>
      </trkpt>
      <trkpt lat="45.99587" lon="6.47559">
        <ele>1709.36</ele>
        <time>2022-01-15T09:59:38Z</time>
      </trkpt>
      <trkpt lat="45.99588" lon="6.47557">
        <ele>1709.84</ele>
        <time>2022-01-15T09:59:45Z</time>
      </trkpt>
      <trkpt lat="45.99589" lon="6.47558">
        <ele>1709.84</ele>
        <time>2022-01-15T10:00:12Z</time>
      </trkpt>
      <trkpt lat="45.99588" lon="6.4756">
        <ele>1710.32</ele>
        <time>2022-01-15T10:00:39Z</time>
      </trkpt>
      <trkpt lat="45.99586" lon="6.47557">
        <ele>1711.28</ele>
        <time>2022-01-15T10:01:14Z</time>
      </trkpt>
      <trkpt lat="45.99587" lon="6.47557">
        <ele>1712.73</ele>
        <time>2022-01-15T10:01:29Z</time>
      </trkpt>
      <trkpt lat="45.99586" lon="6.47557">
        <ele>1711.76</ele>
        <time>2022-01-15T10:01:33Z</time>
      </trkpt>
      <trkpt lat="45.99584" lon="6.47561">
        <ele>1711.76</ele>
        <time>2022-01-15T10:01:57Z</time>
      </trkpt>
      <trkpt lat="45.99585" lon="6.47561">
        <ele>1713.21</ele>
        <time>2022-01-15T10:02:17Z</time>
      </trkpt>
      <trkpt lat="45.99586" lon="6.47563">
        <ele>1713.21</ele>
        <time>2022-01-15T10:02:27Z</time>
      </trkpt>
      <trkpt lat="45.99589" lon="6.4756">
        <ele>1713.21</ele>
        <time>2022-01-15T10:02:40Z</time>
      </trkpt>
      <trkpt lat="45.99597" lon="6.47548">
        <ele>1710.32</ele>
        <time>2022-01-15T10:02:49Z</time>
      </trkpt>
      <trkpt lat="45.99614" lon="6.47542">
        <ele>1707.44</ele>
        <time>2022-01-15T10:02:55Z</time>
      </trkpt>
      <trkpt lat="45.99623" lon="6.4755">
        <ele>1708.4</ele>
        <time>2022-01-15T10:03:05Z</time>
      </trkpt>
      <trkpt lat="45.99629" lon="6.47564">
        <ele>1709.84</ele>
        <time>2022-01-15T10:03:21Z</time>
      </trkpt>
      <trkpt lat="45.99634" lon="6.47575">
        <ele>1710.8</ele>
        <time>2022-01-15T10:03:37Z</time>
      </trkpt>
      <trkpt lat="45.99639" lon="6.47589">
        <ele>1712.73</ele>
        <time>2022-01-15T10:03:54Z</time>
      </trkpt>
      <trkpt lat="45.9964" lon="6.47591">
        <ele>1712.73</ele>
        <time>2022-01-15T10:03:56Z</time>
      </trkpt>
      <trkpt lat="45.99643" lon="6.47602">
        <ele>1713.69</ele>
        <time>2022-01-15T10:04:09Z</time>
      </trkpt>
      <trkpt lat="45.99646" lon="6.47606">
        <ele>1712.73</ele>
        <time>2022-01-15T10:04:16Z</time>
      </trkpt>
      <trkpt lat="45.99649" lon="6.47609">
        <ele>1712.73</ele>
        <time>2022-01-15T10:04:18Z</time>
      </trkpt>
      <trkpt lat="45.99652" lon="6.47611">
        <ele>1711.28</ele>
        <time>2022-01-15T10:04:19Z</time>
      </trkpt>
      <trkpt lat="45.99653" lon="6.47613">
        <ele>1711.28</ele>
        <time>2022-01-15T10:04:20Z</time>
      </trkpt>
      <trkpt lat="45.99656" lon="6.47614">
        <ele>1711.28</ele>
        <time>2022-01-15T10:04:24Z</time>
      </trkpt>
      <trkpt lat="45.99658" lon="6.47615">
        <ele>1711.28</ele>
        <time>2022-01-15T10:04:26Z</time>
      </trkpt>
      <trkpt lat="45.99665" lon="6.47622">
        <ele>1712.73</ele>
        <time>2022-01-15T10:04:36Z</time>
      </trkpt>
      <trkpt lat="45.99672" lon="6.47631">
        <ele>1713.21</ele>
        <time>2022-01-15T10:04:49Z</time>
      </trkpt>
      <trkpt lat="45.99682" lon="6.47644">
        <ele>1714.65</ele>
        <time>2022-01-15T10:05:04Z</time>
      </trkpt>
      <trkpt lat="45.99696" lon="6.47646">
        <ele>1716.57</ele>
        <time>2022-01-15T10:05:22Z</time>
      </trkpt>
      <trkpt lat="45.99706" lon="6.47642">
        <ele>1718.49</ele>
        <time>2022-01-15T10:05:38Z</time>
      </trkpt>
      <trkpt lat="45.99719" lon="6.47638">
        <ele>1721.38</ele>
        <time>2022-01-15T10:05:57Z</time>
      </trkpt>
      <trkpt lat="45.99733" lon="6.47639">
        <ele>1724.26</ele>
        <time>2022-01-15T10:06:15Z</time>
      </trkpt>
      <trkpt lat="45.99742" lon="6.47642">
        <ele>1727.15</ele>
        <time>2022-01-15T10:06:30Z</time>
      </trkpt>
      <trkpt lat="45.99752" lon="6.47642">
        <ele>1730.51</ele>
        <time>2022-01-15T10:06:49Z</time>
      </trkpt>
      <trkpt lat="45.99755" lon="6.47636">
        <ele>1730.99</ele>
        <time>2022-01-15T10:06:54Z</time>
      </trkpt>
      <trkpt lat="45.99762" lon="6.47632">
        <ele>1733.39</ele>
        <time>2022-01-15T10:07:08Z</time>
      </trkpt>
      <trkpt lat="45.9977" lon="6.4763">
        <ele>1735.8</ele>
        <time>2022-01-15T10:07:25Z</time>
      </trkpt>
      <trkpt lat="45.99777" lon="6.47629">
        <ele>1735.8</ele>
        <time>2022-01-15T10:07:34Z</time>
      </trkpt>
      <trkpt lat="45.9978" lon="6.47628">
        <ele>1736.28</ele>
        <time>2022-01-15T10:07:38Z</time>
      </trkpt>
      <trkpt lat="45.99792" lon="6.47626">
        <ele>1738.2</ele>
        <time>2022-01-15T10:07:54Z</time>
      </trkpt>
      <trkpt lat="45.99796" lon="6.47628">
        <ele>1739.16</ele>
        <time>2022-01-15T10:08:00Z</time>
      </trkpt>
      <trkpt lat="45.9981" lon="6.47628">
        <ele>1740.12</ele>
        <time>2022-01-15T10:08:16Z</time>
      </trkpt>
      <trkpt lat="45.99811" lon="6.47629">
        <ele>1741.57</ele>
        <time>2022-01-15T10:08:19Z</time>
      </trkpt>
      <trkpt lat="45.99813" lon="6.4763">
        <ele>1741.57</ele>
        <time>2022-01-15T10:08:21Z</time>
      </trkpt>
      <trkpt lat="45.99822" lon="6.47631">
        <ele>1743.49</ele>
        <time>2022-01-15T10:08:35Z</time>
      </trkpt>
      <trkpt lat="45.99827" lon="6.47635">
        <ele>1743.49</ele>
        <time>2022-01-15T10:08:43Z</time>
      </trkpt>
      <trkpt lat="45.99832" lon="6.47647">
        <ele>1746.85</ele>
        <time>2022-01-15T10:08:58Z</time>
      </trkpt>
      <trkpt lat="45.99838" lon="6.47648">
        <ele>1748.29</ele>
        <time>2022-01-15T10:09:14Z</time>
      </trkpt>
      <trkpt lat="45.9984" lon="6.47632">
        <ele>1752.14</ele>
        <time>2022-01-15T10:09:34Z</time>
      </trkpt>
      <trkpt lat="45.99845" lon="6.4764">
        <ele>1753.1</ele>
        <time>2022-01-15T10:09:49Z</time>
      </trkpt>
      <trkpt lat="45.9985" lon="6.47651">
        <ele>1756.95</ele>
        <time>2022-01-15T10:10:06Z</time>
      </trkpt>
      <trkpt lat="45.99856" lon="6.47661">
        <ele>1759.35</ele>
        <time>2022-01-15T10:10:23Z</time>
      </trkpt>
      <trkpt lat="45.99866" lon="6.47661">
        <ele>1762.71</ele>
        <time>2022-01-15T10:10:41Z</time>
      </trkpt>
      <trkpt lat="45.99867" lon="6.47653">
        <ele>1764.64</ele>
        <time>2022-01-15T10:10:53Z</time>
      </trkpt>
      <trkpt lat="45.9987" lon="6.47643">
        <ele>1767.52</ele>
        <time>2022-01-15T10:11:07Z</time>
      </trkpt>
      <trkpt lat="45.99871" lon="6.47631">
        <ele>1770.41</ele>
        <time>2022-01-15T10:11:25Z</time>
      </trkpt>
      <trkpt lat="45.99872" lon="6.4762">
        <ele>1772.81</ele>
        <time>2022-01-15T10:11:41Z</time>
      </trkpt>
      <trkpt lat="45.99872" lon="6.47618">
        <ele>1774.25</ele>
        <time>2022-01-15T10:11:46Z</time>
      </trkpt>
      <trkpt lat="45.99874" lon="6.47607">
        <ele>1777.61</ele>
        <time>2022-01-15T10:12:02Z</time>
      </trkpt>
      <trkpt lat="45.99873" lon="6.47604">
        <ele>1779.06</ele>
        <time>2022-01-15T10:12:10Z</time>
      </trkpt>
      <trkpt lat="45.99872" lon="6.4759">
        <ele>1781.94</ele>
        <time>2022-01-15T10:12:26Z</time>
      </trkpt>
      <trkpt lat="45.99868" lon="6.47578">
        <ele>1784.82</ele>
        <time>2022-01-15T10:12:44Z</time>
      </trkpt>
      <trkpt lat="45.9987" lon="6.4757">
        <ele>1787.71</ele>
        <time>2022-01-15T10:12:59Z</time>
      </trkpt>
      <trkpt lat="45.99872" lon="6.47561">
        <ele>1790.11</ele>
        <time>2022-01-15T10:13:13Z</time>
      </trkpt>
      <trkpt lat="45.99865" lon="6.47553">
        <ele>1792.52</ele>
        <time>2022-01-15T10:13:29Z</time>
      </trkpt>
      <trkpt lat="45.99856" lon="6.47547">
        <ele>1794.92</ele>
        <time>2022-01-15T10:13:46Z</time>
      </trkpt>
      <trkpt lat="45.99855" lon="6.47546">
        <ele>1796.36</ele>
        <time>2022-01-15T10:13:49Z</time>
      </trkpt>
      <trkpt lat="45.99849" lon="6.4754">
        <ele>1798.76</ele>
        <time>2022-01-15T10:14:05Z</time>
      </trkpt>
      <trkpt lat="45.99849" lon="6.4754">
        <ele>1796.84</ele>
        <time>2022-01-15T10:14:10Z</time>
      </trkpt>
      <trkpt lat="45.99847" lon="6.47541">
        <ele>1798.76</ele>
        <time>2022-01-15T10:14:18Z</time>
      </trkpt>
      <trkpt lat="45.99846" lon="6.47541">
        <ele>1797.32</ele>
        <time>2022-01-15T10:14:20Z</time>
      </trkpt>
      <trkpt lat="45.9985" lon="6.4754">
        <ele>1797.32</ele>
        <time>2022-01-15T10:14:37Z</time>
      </trkpt>
      <trkpt lat="45.99848" lon="6.47544">
        <ele>1797.8</ele>
        <time>2022-01-15T10:15:10Z</time>
      </trkpt>
      <trkpt lat="45.99848" lon="6.47543">
        <ele>1798.28</ele>
        <time>2022-01-15T10:15:35Z</time>
      </trkpt>
      <trkpt lat="45.99848" lon="6.47545">
        <ele>1800.21</ele>
        <time>2022-01-15T10:15:56Z</time>
      </trkpt>
      <trkpt lat="45.99846" lon="6.47543">
        <ele>1798.28</ele>
        <time>2022-01-15T10:16:22Z</time>
      </trkpt>
      <trkpt lat="45.99847" lon="6.47543">
        <ele>1798.76</ele>
        <time>2022-01-15T10:17:00Z</time>
      </trkpt>
      <trkpt lat="45.99849" lon="6.47541">
        <ele>1800.21</ele>
        <time>2022-01-15T10:17:14Z</time>
      </trkpt>
      <trkpt lat="45.9985" lon="6.4754">
        <ele>1798.28</ele>
        <time>2022-01-15T10:17:17Z</time>
      </trkpt>
      <trkpt lat="45.99849" lon="6.4754">
        <ele>1799.73</ele>
        <time>2022-01-15T10:17:19Z</time>
      </trkpt>
      <trkpt lat="45.99847" lon="6.47545">
        <ele>1799.73</ele>
        <time>2022-01-15T10:17:47Z</time>
      </trkpt>
      <trkpt lat="45.99854" lon="6.47536">
        <ele>1801.17</ele>
        <time>2022-01-15T10:18:02Z</time>
      </trkpt>
      <trkpt lat="45.99865" lon="6.47527">
        <ele>1803.57</ele>
        <time>2022-01-15T10:18:21Z</time>
      </trkpt>
      <trkpt lat="45.99877" lon="6.4752">
        <ele>1806.45</ele>
        <time>2022-01-15T10:18:41Z</time>
      </trkpt>
      <trkpt lat="45.99888" lon="6.47522">
        <ele>1807.9</ele>
        <time>2022-01-15T10:18:56Z</time>
      </trkpt>
      <trkpt lat="45.99896" lon="6.4753">
        <ele>1809.34</ele>
        <time>2022-01-15T10:19:11Z</time>
      </trkpt>
      <trkpt lat="45.99896" lon="6.47534">
        <ele>1810.3</ele>
        <time>2022-01-15T10:19:19Z</time>
      </trkpt>
      <trkpt lat="45.99902" lon="6.47542">
        <ele>1812.22</ele>
        <time>2022-01-15T10:19:34Z</time>
      </trkpt>
      <trkpt lat="45.99905" lon="6.47545">
        <ele>1813.66</ele>
        <time>2022-01-15T10:19:42Z</time>
      </trkpt>
      <trkpt lat="45.99911" lon="6.47551">
        <ele>1816.07</ele>
        <time>2022-01-15T10:19:56Z</time>
      </trkpt>
      <trkpt lat="45.99916" lon="6.47561">
        <ele>1819.43</ele>
        <time>2022-01-15T10:20:13Z</time>
      </trkpt>
      <trkpt lat="45.99921" lon="6.47573">
        <ele>1821.35</ele>
        <time>2022-01-15T10:20:33Z</time>
      </trkpt>
      <trkpt lat="45.99924" lon="6.47576">
        <ele>1822.32</ele>
        <time>2022-01-15T10:20:51Z</time>
      </trkpt>
      <trkpt lat="45.99927" lon="6.4757">
        <ele>1823.76</ele>
        <time>2022-01-15T10:21:00Z</time>
      </trkpt>
      <trkpt lat="45.99931" lon="6.47557">
        <ele>1826.64</ele>
        <time>2022-01-15T10:21:19Z</time>
      </trkpt>
      <trkpt lat="45.99937" lon="6.47544">
        <ele>1829.53</ele>
        <time>2022-01-15T10:21:39Z</time>
      </trkpt>
      <trkpt lat="45.99938" lon="6.47538">
        <ele>1830.49</ele>
        <time>2022-01-15T10:21:47Z</time>
      </trkpt>
      <trkpt lat="45.99938" lon="6.47537">
        <ele>1832.41</ele>
        <time>2022-01-15T10:21:54Z</time>
      </trkpt>
      <trkpt lat="45.99937" lon="6.47537">
        <ele>1830.97</ele>
        <time>2022-01-15T10:21:56Z</time>
      </trkpt>
      <trkpt lat="45.99941" lon="6.47529">
        <ele>1833.85</ele>
        <time>2022-01-15T10:22:12Z</time>
      </trkpt>
      <trkpt lat="45.99947" lon="6.47514">
        <ele>1835.77</ele>
        <time>2022-01-15T10:22:29Z</time>
      </trkpt>
      <trkpt lat="45.99946" lon="6.47506">
        <ele>1837.22</ele>
        <time>2022-01-15T10:22:37Z</time>
      </trkpt>
      <trkpt lat="45.9994" lon="6.47491">
        <ele>1840.58</ele>
        <time>2022-01-15T10:22:57Z</time>
      </trkpt>
      <trkpt lat="45.99937" lon="6.47484">
        <ele>1841.06</ele>
        <time>2022-01-15T10:23:16Z</time>
      </trkpt>
      <trkpt lat="45.99941" lon="6.47487">
        <ele>1844.43</ele>
        <time>2022-01-15T10:23:32Z</time>
      </trkpt>
      <trkpt lat="45.99946" lon="6.47494">
        <ele>1846.35</ele>
        <time>2022-01-15T10:23:49Z</time>
      </trkpt>
      <trkpt lat="45.99954" lon="6.47502">
        <ele>1848.75</ele>
        <time>2022-01-15T10:24:07Z</time>
      </trkpt>
      <trkpt lat="45.99957" lon="6.47504">
        <ele>1848.75</ele>
        <time>2022-01-15T10:24:12Z</time>
      </trkpt>
      <trkpt lat="45.99964" lon="6.47512">
        <ele>1852.12</ele>
        <time>2022-01-15T10:24:29Z</time>
      </trkpt>
      <trkpt lat="45.99965" lon="6.47514">
        <ele>1852.12</ele>
        <time>2022-01-15T10:24:40Z</time>
      </trkpt>
      <trkpt lat="45.99968" lon="6.47518">
        <ele>1854.04</ele>
        <time>2022-01-15T10:24:57Z</time>
      </trkpt>
      <trkpt lat="45.99968" lon="6.47519">
        <ele>1854.52</ele>
        <time>2022-01-15T10:25:01Z</time>
      </trkpt>
      <trkpt lat="45.9997" lon="6.47526">
        <ele>1856.44</ele>
        <time>2022-01-15T10:25:16Z</time>
      </trkpt>
      <trkpt lat="45.99971" lon="6.47538">
        <ele>1858.37</ele>
        <time>2022-01-15T10:25:32Z</time>
      </trkpt>
      <trkpt lat="45.99971" lon="6.47542">
        <ele>1859.81</ele>
        <time>2022-01-15T10:25:50Z</time>
      </trkpt>
      <trkpt lat="45.99974" lon="6.47537">
        <ele>1861.25</ele>
        <time>2022-01-15T10:26:07Z</time>
      </trkpt>
      <trkpt lat="45.99975" lon="6.47537">
        <ele>1861.25</ele>
        <time>2022-01-15T10:26:08Z</time>
      </trkpt>
      <trkpt lat="45.99981" lon="6.47527">
        <ele>1865.09</ele>
        <time>2022-01-15T10:26:25Z</time>
      </trkpt>
      <trkpt lat="45.99982" lon="6.47526">
        <ele>1865.09</ele>
        <time>2022-01-15T10:26:26Z</time>
      </trkpt>
      <trkpt lat="45.99987" lon="6.47518">
        <ele>1867.5</ele>
        <time>2022-01-15T10:26:43Z</time>
      </trkpt>
      <trkpt lat="45.99992" lon="6.47503">
        <ele>1870.38</ele>
        <time>2022-01-15T10:27:06Z</time>
      </trkpt>
      <trkpt lat="45.99992" lon="6.47492">
        <ele>1872.79</ele>
        <time>2022-01-15T10:27:22Z</time>
      </trkpt>
      <trkpt lat="45.99996" lon="6.47493">
        <ele>1873.75</ele>
        <time>2022-01-15T10:27:37Z</time>
      </trkpt>
      <trkpt lat="45.99998" lon="6.47503">
        <ele>1877.59</ele>
        <time>2022-01-15T10:27:53Z</time>
      </trkpt>
      <trkpt lat="46" lon="6.47517">
        <ele>1878.07</ele>
        <time>2022-01-15T10:28:10Z</time>
      </trkpt>
      <trkpt lat="46.00001" lon="6.47527">
        <ele>1881.92</ele>
        <time>2022-01-15T10:28:24Z</time>
      </trkpt>
      <trkpt lat="46.00002" lon="6.47532">
        <ele>1881.92</ele>
        <time>2022-01-15T10:28:30Z</time>
      </trkpt>
      <trkpt lat="46.00004" lon="6.47541">
        <ele>1885.76</ele>
        <time>2022-01-15T10:28:42Z</time>
      </trkpt>
      <trkpt lat="46.00008" lon="6.4756">
        <ele>1888.17</ele>
        <time>2022-01-15T10:29:03Z</time>
      </trkpt>
      <trkpt lat="46.00012" lon="6.4756">
        <ele>1890.57</ele>
        <time>2022-01-15T10:29:16Z</time>
      </trkpt>
      <trkpt lat="46.00021" lon="6.47551">
        <ele>1892.97</ele>
        <time>2022-01-15T10:29:33Z</time>
      </trkpt>
      <trkpt lat="46.00024" lon="6.47545">
        <ele>1895.86</ele>
        <time>2022-01-15T10:29:44Z</time>
      </trkpt>
      <trkpt lat="46.0003" lon="6.47539">
        <ele>1898.26</ele>
        <time>2022-01-15T10:30:04Z</time>
      </trkpt>
      <trkpt lat="46.00037" lon="6.47532">
        <ele>1901.14</ele>
        <time>2022-01-15T10:30:22Z</time>
      </trkpt>
      <trkpt lat="46.00041" lon="6.47535">
        <ele>1904.51</ele>
        <time>2022-01-15T10:30:38Z</time>
      </trkpt>
      <trkpt lat="46.00045" lon="6.47537">
        <ele>1905.47</ele>
        <time>2022-01-15T10:30:47Z</time>
      </trkpt>
      <trkpt lat="46.00051" lon="6.47531">
        <ele>1908.83</ele>
        <time>2022-01-15T10:31:01Z</time>
      </trkpt>
      <trkpt lat="46.00051" lon="6.47532">
        <ele>1908.83</ele>
        <time>2022-01-15T10:31:02Z</time>
      </trkpt>
      <trkpt lat="46.00057" lon="6.47544">
        <ele>1912.2</ele>
        <time>2022-01-15T10:31:22Z</time>
      </trkpt>
      <trkpt lat="46.00064" lon="6.47539">
        <ele>1913.64</ele>
        <time>2022-01-15T10:31:39Z</time>
      </trkpt>
      <trkpt lat="46.00069" lon="6.47528">
        <ele>1917.01</ele>
        <time>2022-01-15T10:31:57Z</time>
      </trkpt>
      <trkpt lat="46.00072" lon="6.47518">
        <ele>1920.37</ele>
        <time>2022-01-15T10:32:12Z</time>
      </trkpt>
      <trkpt lat="46.00074" lon="6.47506">
        <ele>1922.29</ele>
        <time>2022-01-15T10:32:26Z</time>
      </trkpt>
      <trkpt lat="46.00075" lon="6.47493">
        <ele>1925.18</ele>
        <time>2022-01-15T10:32:43Z</time>
      </trkpt>
      <trkpt lat="46.00081" lon="6.47501">
        <ele>1928.06</ele>
        <time>2022-01-15T10:33:00Z</time>
      </trkpt>
      <trkpt lat="46.00087" lon="6.47513">
        <ele>1930.46</ele>
        <time>2022-01-15T10:33:19Z</time>
      </trkpt>
      <trkpt lat="46.00093" lon="6.47502">
        <ele>1933.35</ele>
        <time>2022-01-15T10:33:36Z</time>
      </trkpt>
      <trkpt lat="46.00095" lon="6.47498">
        <ele>1935.27</ele>
        <time>2022-01-15T10:33:45Z</time>
      </trkpt>
      <trkpt lat="46.00098" lon="6.47495">
        <ele>1936.23</ele>
        <time>2022-01-15T10:33:51Z</time>
      </trkpt>
      <trkpt lat="46.001" lon="6.47491">
        <ele>1937.67</ele>
        <time>2022-01-15T10:33:56Z</time>
      </trkpt>
      <trkpt lat="46.00102" lon="6.47474">
        <ele>1940.56</ele>
        <time>2022-01-15T10:34:17Z</time>
      </trkpt>
      <trkpt lat="46.00101" lon="6.47461">
        <ele>1943.92</ele>
        <time>2022-01-15T10:34:31Z</time>
      </trkpt>
      <trkpt lat="46.00101" lon="6.47454">
        <ele>1945.85</ele>
        <time>2022-01-15T10:34:39Z</time>
      </trkpt>
      <trkpt lat="46.001" lon="6.47441">
        <ele>1946.81</ele>
        <time>2022-01-15T10:34:57Z</time>
      </trkpt>
      <trkpt lat="46.001" lon="6.47429">
        <ele>1950.17</ele>
        <time>2022-01-15T10:35:14Z</time>
      </trkpt>
      <trkpt lat="46.00103" lon="6.47418">
        <ele>1953.06</ele>
        <time>2022-01-15T10:35:31Z</time>
      </trkpt>
      <trkpt lat="46.00108" lon="6.47406">
        <ele>1954.98</ele>
        <time>2022-01-15T10:35:49Z</time>
      </trkpt>
      <trkpt lat="46.00108" lon="6.47398">
        <ele>1958.34</ele>
        <time>2022-01-15T10:36:00Z</time>
      </trkpt>
      <trkpt lat="46.00109" lon="6.47398">
        <ele>1958.34</ele>
        <time>2022-01-15T10:36:01Z</time>
      </trkpt>
      <trkpt lat="46.00114" lon="6.47403">
        <ele>1960.75</ele>
        <time>2022-01-15T10:36:14Z</time>
      </trkpt>
      <trkpt lat="46.00119" lon="6.47412">
        <ele>1964.59</ele>
        <time>2022-01-15T10:36:29Z</time>
      </trkpt>
      <trkpt lat="46.0013" lon="6.47418">
        <ele>1965.55</ele>
        <time>2022-01-15T10:36:50Z</time>
      </trkpt>
      <trkpt lat="46.00136" lon="6.47418">
        <ele>1968.92</ele>
        <time>2022-01-15T10:36:59Z</time>
      </trkpt>
      <trkpt lat="46.00143" lon="6.4742">
        <ele>1969.88</ele>
        <time>2022-01-15T10:37:15Z</time>
      </trkpt>
      <trkpt lat="46.00146" lon="6.47416">
        <ele>1968.92</ele>
        <time>2022-01-15T10:37:36Z</time>
      </trkpt>
      <trkpt lat="46.00147" lon="6.47414">
        <ele>1968.92</ele>
        <time>2022-01-15T10:38:08Z</time>
      </trkpt>
      <trkpt lat="46.00141" lon="6.47419">
        <ele>1968.92</ele>
        <time>2022-01-15T10:38:50Z</time>
      </trkpt>
      <trkpt lat="46.00144" lon="6.47419">
        <ele>1968.92</ele>
        <time>2022-01-15T10:39:16Z</time>
      </trkpt>
      <trkpt lat="46.00144" lon="6.47419">
        <ele>1972.28</ele>
        <time>2022-01-15T10:39:17Z</time>
      </trkpt>
      <trkpt lat="46.00144" lon="6.47419">
        <ele>1971.8</ele>
        <time>2022-01-15T10:39:21Z</time>
      </trkpt>
      <trkpt lat="46.00144" lon="6.4742">
        <ele>1970.36</ele>
        <time>2022-01-15T10:39:23Z</time>
      </trkpt>
      <trkpt lat="46.00142" lon="6.47421">
        <ele>1970.36</ele>
        <time>2022-01-15T10:39:34Z</time>
      </trkpt>
      <trkpt lat="46.00142" lon="6.47421">
        <ele>1971.8</ele>
        <time>2022-01-15T10:39:38Z</time>
      </trkpt>
      <trkpt lat="46.00145" lon="6.47419">
        <ele>1972.28</ele>
        <time>2022-01-15T10:39:45Z</time>
      </trkpt>
      <trkpt lat="46.00151" lon="6.47418">
        <ele>1974.69</ele>
        <time>2022-01-15T10:39:56Z</time>
      </trkpt>
      <trkpt lat="46.00162" lon="6.47413">
        <ele>1976.61</ele>
        <time>2022-01-15T10:40:16Z</time>
      </trkpt>
      <trkpt lat="46.00168" lon="6.47413">
        <ele>1980.45</ele>
        <time>2022-01-15T10:40:29Z</time>
      </trkpt>
      <trkpt lat="46.0017" lon="6.47411">
        <ele>1980.45</ele>
        <time>2022-01-15T10:40:34Z</time>
      </trkpt>
      <trkpt lat="46.00169" lon="6.47397">
        <ele>1983.82</ele>
        <time>2022-01-15T10:40:54Z</time>
      </trkpt>
      <trkpt lat="46.00169" lon="6.4739">
        <ele>1985.74</ele>
        <time>2022-01-15T10:41:06Z</time>
      </trkpt>
      <trkpt lat="46.00177" lon="6.47382">
        <ele>1988.62</ele>
        <time>2022-01-15T10:41:25Z</time>
      </trkpt>
      <trkpt lat="46.00189" lon="6.47383">
        <ele>1991.03</ele>
        <time>2022-01-15T10:41:47Z</time>
      </trkpt>
      <trkpt lat="46.00192" lon="6.47384">
        <ele>1992.47</ele>
        <time>2022-01-15T10:41:54Z</time>
      </trkpt>
      <trkpt lat="46.00201" lon="6.4739">
        <ele>1993.91</ele>
        <time>2022-01-15T10:42:12Z</time>
      </trkpt>
      <trkpt lat="46.00203" lon="6.47393">
        <ele>1996.8</ele>
        <time>2022-01-15T10:42:17Z</time>
      </trkpt>
      <trkpt lat="46.0021" lon="6.47398">
        <ele>1997.28</ele>
        <time>2022-01-15T10:42:33Z</time>
      </trkpt>
      <trkpt lat="46.00211" lon="6.47396">
        <ele>1998.72</ele>
        <time>2022-01-15T10:42:36Z</time>
      </trkpt>
      <trkpt lat="46.00214" lon="6.4739">
        <ele>2000.16</ele>
        <time>2022-01-15T10:42:54Z</time>
      </trkpt>
      <trkpt lat="46.00215" lon="6.4739">
        <ele>2001.6</ele>
        <time>2022-01-15T10:43:15Z</time>
      </trkpt>
      <trkpt lat="46.00214" lon="6.4739">
        <ele>2000.64</ele>
        <time>2022-01-15T10:43:51Z</time>
      </trkpt>
      <trkpt lat="46.00213" lon="6.4739">
        <ele>1999.2</ele>
        <time>2022-01-15T10:44:06Z</time>
      </trkpt>
      <trkpt lat="46.00213" lon="6.47391">
        <ele>2001.6</ele>
        <time>2022-01-15T10:44:07Z</time>
      </trkpt>
      <trkpt lat="46.00213" lon="6.47391">
        <ele>2000.64</ele>
        <time>2022-01-15T10:44:10Z</time>
      </trkpt>
      <trkpt lat="46.00223" lon="6.4739">
        <ele>2002.08</ele>
        <time>2022-01-15T10:44:27Z</time>
      </trkpt>
      <trkpt lat="46.00233" lon="6.47383">
        <ele>2005.45</ele>
        <time>2022-01-15T10:44:44Z</time>
      </trkpt>
      <trkpt lat="46.00239" lon="6.47368">
        <ele>2008.81</ele>
        <time>2022-01-15T10:45:05Z</time>
      </trkpt>
      <trkpt lat="46.0024" lon="6.47364">
        <ele>2010.25</ele>
        <time>2022-01-15T10:45:11Z</time>
      </trkpt>
      <trkpt lat="46.00243" lon="6.47357">
        <ele>2011.7</ele>
        <time>2022-01-15T10:45:23Z</time>
      </trkpt>
      <trkpt lat="46.00243" lon="6.47355">
        <ele>2013.14</ele>
        <time>2022-01-15T10:45:28Z</time>
      </trkpt>
      <trkpt lat="46.00245" lon="6.47343">
        <ele>2015.06</ele>
        <time>2022-01-15T10:45:46Z</time>
      </trkpt>
      <trkpt lat="46.00248" lon="6.47348">
        <ele>2018.43</ele>
        <time>2022-01-15T10:46:00Z</time>
      </trkpt>
      <trkpt lat="46.00253" lon="6.47356">
        <ele>2019.87</ele>
        <time>2022-01-15T10:46:18Z</time>
      </trkpt>
      <trkpt lat="46.00256" lon="6.47359">
        <ele>2021.79</ele>
        <time>2022-01-15T10:46:25Z</time>
      </trkpt>
      <trkpt lat="46.00264" lon="6.47359">
        <ele>2024.19</ele>
        <time>2022-01-15T10:46:42Z</time>
      </trkpt>
      <trkpt lat="46.00266" lon="6.47352">
        <ele>2026.12</ele>
        <time>2022-01-15T10:46:52Z</time>
      </trkpt>
      <trkpt lat="46.00271" lon="6.47343">
        <ele>2028.52</ele>
        <time>2022-01-15T10:47:13Z</time>
      </trkpt>
      <trkpt lat="46.00273" lon="6.4734">
        <ele>2031.4</ele>
        <time>2022-01-15T10:47:25Z</time>
      </trkpt>
      <trkpt lat="46.00281" lon="6.4733">
        <ele>2033.81</ele>
        <time>2022-01-15T10:47:45Z</time>
      </trkpt>
      <trkpt lat="46.00288" lon="6.47325">
        <ele>2037.65</ele>
        <time>2022-01-15T10:48:01Z</time>
      </trkpt>
      <trkpt lat="46.00299" lon="6.47319">
        <ele>2040.05</ele>
        <time>2022-01-15T10:48:20Z</time>
      </trkpt>
      <trkpt lat="46.00305" lon="6.47309">
        <ele>2042.46</ele>
        <time>2022-01-15T10:48:39Z</time>
      </trkpt>
      <trkpt lat="46.00308" lon="6.473">
        <ele>2043.9</ele>
        <time>2022-01-15T10:48:57Z</time>
      </trkpt>
      <trkpt lat="46.00312" lon="6.47299">
        <ele>2046.3</ele>
        <time>2022-01-15T10:49:03Z</time>
      </trkpt>
      <trkpt lat="46.00315" lon="6.47298">
        <ele>2044.86</ele>
        <time>2022-01-15T10:49:07Z</time>
      </trkpt>
      <trkpt lat="46.00315" lon="6.47298">
        <ele>2044.86</ele>
        <time>2022-01-15T10:49:08Z</time>
      </trkpt>
      <trkpt lat="46.00329" lon="6.47301">
        <ele>2045.34</ele>
        <time>2022-01-15T10:49:21Z</time>
      </trkpt>
      <trkpt lat="46.00339" lon="6.47303">
        <ele>2048.23</ele>
        <time>2022-01-15T10:49:35Z</time>
      </trkpt>
      <trkpt lat="46.00351" lon="6.473">
        <ele>2050.15</ele>
        <time>2022-01-15T10:49:53Z</time>
      </trkpt>
      <trkpt lat="46.00359" lon="6.47298">
        <ele>2053.51</ele>
        <time>2022-01-15T10:50:10Z</time>
      </trkpt>
      <trkpt lat="46.00369" lon="6.47295">
        <ele>2055.92</ele>
        <time>2022-01-15T10:50:27Z</time>
      </trkpt>
      <trkpt lat="46.00376" lon="6.47289">
        <ele>2058.32</ele>
        <time>2022-01-15T10:50:45Z</time>
      </trkpt>
      <trkpt lat="46.0038" lon="6.47285">
        <ele>2060.72</ele>
        <time>2022-01-15T10:51:00Z</time>
      </trkpt>
      <trkpt lat="46.00389" lon="6.47275">
        <ele>2063.61</ele>
        <time>2022-01-15T10:51:19Z</time>
      </trkpt>
      <trkpt lat="46.00398" lon="6.47267">
        <ele>2066.01</ele>
        <time>2022-01-15T10:51:37Z</time>
      </trkpt>
      <trkpt lat="46.00409" lon="6.47257">
        <ele>2069.38</ele>
        <time>2022-01-15T10:51:58Z</time>
      </trkpt>
      <trkpt lat="46.00416" lon="6.4725">
        <ele>2071.3</ele>
        <time>2022-01-15T10:52:15Z</time>
      </trkpt>
      <trkpt lat="46.00421" lon="6.47242">
        <ele>2073.7</ele>
        <time>2022-01-15T10:52:31Z</time>
      </trkpt>
      <trkpt lat="46.00427" lon="6.47235">
        <ele>2077.07</ele>
        <time>2022-01-15T10:52:47Z</time>
      </trkpt>
      <trkpt lat="46.00432" lon="6.4723">
        <ele>2078.51</ele>
        <time>2022-01-15T10:52:58Z</time>
      </trkpt>
      <trkpt lat="46.00435" lon="6.47219">
        <ele>2080.91</ele>
        <time>2022-01-15T10:53:16Z</time>
      </trkpt>
      <trkpt lat="46.00434" lon="6.47216">
        <ele>2080.91</ele>
        <time>2022-01-15T10:53:30Z</time>
      </trkpt>
      <trkpt lat="46.00434" lon="6.47216">
        <ele>2083.31</ele>
        <time>2022-01-15T10:53:31Z</time>
      </trkpt>
      <trkpt lat="46.00434" lon="6.47216">
        <ele>2081.87</ele>
        <time>2022-01-15T10:53:32Z</time>
      </trkpt>
      <trkpt lat="46.00434" lon="6.47217">
        <ele>2083.31</ele>
        <time>2022-01-15T10:53:36Z</time>
      </trkpt>
      <trkpt lat="46.00435" lon="6.47219">
        <ele>2084.28</ele>
        <time>2022-01-15T10:53:42Z</time>
      </trkpt>
      <trkpt lat="46.00438" lon="6.47222">
        <ele>2085.24</ele>
        <time>2022-01-15T10:53:51Z</time>
      </trkpt>
      <trkpt lat="46.00439" lon="6.47227">
        <ele>2087.16</ele>
        <time>2022-01-15T10:53:58Z</time>
      </trkpt>
      <trkpt lat="46.00439" lon="6.47227">
        <ele>2085.72</ele>
        <time>2022-01-15T10:53:59Z</time>
      </trkpt>
      <trkpt lat="46.00439" lon="6.47229">
        <ele>2087.16</ele>
        <time>2022-01-15T10:54:01Z</time>
      </trkpt>
      <trkpt lat="46.0044" lon="6.47231">
        <ele>2086.68</ele>
        <time>2022-01-15T10:54:06Z</time>
      </trkpt>
      <trkpt lat="46.00441" lon="6.47232">
        <ele>2088.12</ele>
        <time>2022-01-15T10:54:08Z</time>
      </trkpt>
      <trkpt lat="46.00444" lon="6.47234">
        <ele>2089.56</ele>
        <time>2022-01-15T10:54:15Z</time>
      </trkpt>
      <trkpt lat="46.00445" lon="6.47236">
        <ele>2087.64</ele>
        <time>2022-01-15T10:54:19Z</time>
      </trkpt>
      <trkpt lat="46.00446" lon="6.47238">
        <ele>2088.12</ele>
        <time>2022-01-15T10:54:23Z</time>
      </trkpt>
      <trkpt lat="46.00446" lon="6.47239">
        <ele>2091</ele>
        <time>2022-01-15T10:54:24Z</time>
      </trkpt>
      <trkpt lat="46.00446" lon="6.47239">
        <ele>2089.56</ele>
        <time>2022-01-15T10:54:25Z</time>
      </trkpt>
      <trkpt lat="46.00447" lon="6.47242">
        <ele>2091.49</ele>
        <time>2022-01-15T10:54:29Z</time>
      </trkpt>
      <trkpt lat="46.00447" lon="6.47243">
        <ele>2089.56</ele>
        <time>2022-01-15T10:54:30Z</time>
      </trkpt>
      <trkpt lat="46.00448" lon="6.47243">
        <ele>2091</ele>
        <time>2022-01-15T10:54:31Z</time>
      </trkpt>
      <trkpt lat="46.00449" lon="6.47244">
        <ele>2089.56</ele>
        <time>2022-01-15T10:54:33Z</time>
      </trkpt>
      <trkpt lat="46.00449" lon="6.47245">
        <ele>2092.45</ele>
        <time>2022-01-15T10:54:34Z</time>
      </trkpt>
      <trkpt lat="46.00449" lon="6.47246">
        <ele>2090.52</ele>
        <time>2022-01-15T10:54:35Z</time>
      </trkpt>
      <trkpt lat="46.0045" lon="6.47248">
        <ele>2093.41</ele>
        <time>2022-01-15T10:54:39Z</time>
      </trkpt>
      <trkpt lat="46.00451" lon="6.47248">
        <ele>2090.52</ele>
        <time>2022-01-15T10:54:40Z</time>
      </trkpt>
      <trkpt lat="46.00451" lon="6.4725">
        <ele>2091.97</ele>
        <time>2022-01-15T10:54:42Z</time>
      </trkpt>
      <trkpt lat="46.00451" lon="6.4725">
        <ele>2090.52</ele>
        <time>2022-01-15T10:54:43Z</time>
      </trkpt>
      <trkpt lat="46.00451" lon="6.47251">
        <ele>2093.41</ele>
        <time>2022-01-15T10:54:44Z</time>
      </trkpt>
      <trkpt lat="46.00453" lon="6.47253">
        <ele>2093.41</ele>
        <time>2022-01-15T10:54:48Z</time>
      </trkpt>
      <trkpt lat="46.00453" lon="6.47254">
        <ele>2091.97</ele>
        <time>2022-01-15T10:54:49Z</time>
      </trkpt>
      <trkpt lat="46.00453" lon="6.47254">
        <ele>2094.37</ele>
        <time>2022-01-15T10:54:50Z</time>
      </trkpt>
      <trkpt lat="46.00453" lon="6.47254">
        <ele>2092.45</ele>
        <time>2022-01-15T10:54:51Z</time>
      </trkpt>
      <trkpt lat="46.00453" lon="6.47254">
        <ele>2093.89</ele>
        <time>2022-01-15T10:54:52Z</time>
      </trkpt>
      <trkpt lat="46.00461" lon="6.47247">
        <ele>2094.85</ele>
        <time>2022-01-15T10:55:08Z</time>
      </trkpt>
      <trkpt lat="46.00466" lon="6.47238">
        <ele>2098.21</ele>
        <time>2022-01-15T10:55:24Z</time>
      </trkpt>
      <trkpt lat="46.00473" lon="6.47224">
        <ele>2101.58</ele>
        <time>2022-01-15T10:55:44Z</time>
      </trkpt>
      <trkpt lat="46.00475" lon="6.4722">
        <ele>2101.58</ele>
        <time>2022-01-15T10:55:49Z</time>
      </trkpt>
      <trkpt lat="46.00472" lon="6.47211">
        <ele>2104.94</ele>
        <time>2022-01-15T10:56:09Z</time>
      </trkpt>
      <trkpt lat="46.00472" lon="6.47197">
        <ele>2106.87</ele>
        <time>2022-01-15T10:56:32Z</time>
      </trkpt>
      <trkpt lat="46.0047" lon="6.47183">
        <ele>2109.27</ele>
        <time>2022-01-15T10:56:49Z</time>
      </trkpt>
      <trkpt lat="46.00473" lon="6.47179">
        <ele>2111.19</ele>
        <time>2022-01-15T10:57:07Z</time>
      </trkpt>
      <trkpt lat="46.00473" lon="6.47182">
        <ele>2114.56</ele>
        <time>2022-01-15T10:57:20Z</time>
      </trkpt>
      <trkpt lat="46.00474" lon="6.47183">
        <ele>2113.12</ele>
        <time>2022-01-15T10:57:22Z</time>
      </trkpt>
      <trkpt lat="46.00475" lon="6.47184">
        <ele>2114.08</ele>
        <time>2022-01-15T10:57:25Z</time>
      </trkpt>
      <trkpt lat="46.00477" lon="6.47186">
        <ele>2115.52</ele>
        <time>2022-01-15T10:57:31Z</time>
      </trkpt>
      <trkpt lat="46.00478" lon="6.47189">
        <ele>2116.96</ele>
        <time>2022-01-15T10:57:38Z</time>
      </trkpt>
      <trkpt lat="46.00483" lon="6.472">
        <ele>2117.92</ele>
        <time>2022-01-15T10:57:59Z</time>
      </trkpt>
      <trkpt lat="46.00485" lon="6.47206">
        <ele>2121.29</ele>
        <time>2022-01-15T10:58:08Z</time>
      </trkpt>
      <trkpt lat="46.00487" lon="6.47217">
        <ele>2123.21</ele>
        <time>2022-01-15T10:58:25Z</time>
      </trkpt>
      <trkpt lat="46.00491" lon="6.47227">
        <ele>2126.09</ele>
        <time>2022-01-15T10:58:42Z</time>
      </trkpt>
      <trkpt lat="46.00496" lon="6.47229">
        <ele>2126.57</ele>
        <time>2022-01-15T10:58:58Z</time>
      </trkpt>
      <trkpt lat="46.00502" lon="6.47217">
        <ele>2128.98</ele>
        <time>2022-01-15T10:59:18Z</time>
      </trkpt>
      <trkpt lat="46.00503" lon="6.47208">
        <ele>2132.34</ele>
        <time>2022-01-15T10:59:31Z</time>
      </trkpt>
      <trkpt lat="46.00509" lon="6.47196">
        <ele>2134.26</ele>
        <time>2022-01-15T10:59:51Z</time>
      </trkpt>
      <trkpt lat="46.00509" lon="6.47186">
        <ele>2137.15</ele>
        <time>2022-01-15T11:00:07Z</time>
      </trkpt>
      <trkpt lat="46.00509" lon="6.47185">
        <ele>2137.15</ele>
        <time>2022-01-15T11:00:08Z</time>
      </trkpt>
      <trkpt lat="46.00511" lon="6.4717">
        <ele>2139.55</ele>
        <time>2022-01-15T11:00:29Z</time>
      </trkpt>
      <trkpt lat="46.00512" lon="6.47161">
        <ele>2141.47</ele>
        <time>2022-01-15T11:00:41Z</time>
      </trkpt>
      <trkpt lat="46.00513" lon="6.47147">
        <ele>2141.95</ele>
        <time>2022-01-15T11:00:57Z</time>
      </trkpt>
      <trkpt lat="46.00513" lon="6.47134">
        <ele>2144.84</ele>
        <time>2022-01-15T11:01:14Z</time>
      </trkpt>
      <trkpt lat="46.00516" lon="6.47121">
        <ele>2147.72</ele>
        <time>2022-01-15T11:01:31Z</time>
      </trkpt>
      <trkpt lat="46.00513" lon="6.47105">
        <ele>2151.09</ele>
        <time>2022-01-15T11:01:52Z</time>
      </trkpt>
      <trkpt lat="46.00513" lon="6.47101">
        <ele>2152.05</ele>
        <time>2022-01-15T11:02:10Z</time>
      </trkpt>
      <trkpt lat="46.00516" lon="6.47109">
        <ele>2154.93</ele>
        <time>2022-01-15T11:02:25Z</time>
      </trkpt>
      <trkpt lat="46.00519" lon="6.47117">
        <ele>2157.82</ele>
        <time>2022-01-15T11:02:43Z</time>
      </trkpt>
      <trkpt lat="46.00522" lon="6.47105">
        <ele>2159.74</ele>
        <time>2022-01-15T11:03:01Z</time>
      </trkpt>
      <trkpt lat="46.00521" lon="6.47093">
        <ele>2163.1</ele>
        <time>2022-01-15T11:03:16Z</time>
      </trkpt>
      <trkpt lat="46.00521" lon="6.47088">
        <ele>2163.58</ele>
        <time>2022-01-15T11:03:24Z</time>
      </trkpt>
      <trkpt lat="46.00524" lon="6.47093">
        <ele>2165.51</ele>
        <time>2022-01-15T11:03:38Z</time>
      </trkpt>
      <trkpt lat="46.00525" lon="6.47099">
        <ele>2165.51</ele>
        <time>2022-01-15T11:03:49Z</time>
      </trkpt>
      <trkpt lat="46.00528" lon="6.47103">
        <ele>2168.39</ele>
        <time>2022-01-15T11:03:58Z</time>
      </trkpt>
      <trkpt lat="46.0053" lon="6.47092">
        <ele>2169.83</ele>
        <time>2022-01-15T11:04:17Z</time>
      </trkpt>
      <trkpt lat="46.0053" lon="6.47083">
        <ele>2172.72</ele>
        <time>2022-01-15T11:04:34Z</time>
      </trkpt>
      <trkpt lat="46.00531" lon="6.4707">
        <ele>2175.12</ele>
        <time>2022-01-15T11:04:53Z</time>
      </trkpt>
      <trkpt lat="46.00532" lon="6.47065">
        <ele>2176.56</ele>
        <time>2022-01-15T11:05:04Z</time>
      </trkpt>
      <trkpt lat="46.00532" lon="6.4707">
        <ele>2177.52</ele>
        <time>2022-01-15T11:05:13Z</time>
      </trkpt>
      <trkpt lat="46.00537" lon="6.47078">
        <ele>2178</ele>
        <time>2022-01-15T11:05:31Z</time>
      </trkpt>
      <trkpt lat="46.00538" lon="6.47079">
        <ele>2181.37</ele>
        <time>2022-01-15T11:05:34Z</time>
      </trkpt>
      <trkpt lat="46.00538" lon="6.4708">
        <ele>2180.89</ele>
        <time>2022-01-15T11:05:35Z</time>
      </trkpt>
      <trkpt lat="46.00542" lon="6.47084">
        <ele>2180.41</ele>
        <time>2022-01-15T11:05:51Z</time>
      </trkpt>
      <trkpt lat="46.00542" lon="6.47077">
        <ele>2183.77</ele>
        <time>2022-01-15T11:06:03Z</time>
      </trkpt>
      <trkpt lat="46.00542" lon="6.47067">
        <ele>2185.69</ele>
        <time>2022-01-15T11:06:20Z</time>
      </trkpt>
      <trkpt lat="46.00544" lon="6.47062">
        <ele>2185.69</ele>
        <time>2022-01-15T11:06:35Z</time>
      </trkpt>
      <trkpt lat="46.00545" lon="6.47063">
        <ele>2187.14</ele>
        <time>2022-01-15T11:06:37Z</time>
      </trkpt>
      <trkpt lat="46.00551" lon="6.47075">
        <ele>2190.02</ele>
        <time>2022-01-15T11:06:54Z</time>
      </trkpt>
      <trkpt lat="46.00551" lon="6.47072">
        <ele>2190.98</ele>
        <time>2022-01-15T11:07:13Z</time>
      </trkpt>
      <trkpt lat="46.00554" lon="6.47061">
        <ele>2193.39</ele>
        <time>2022-01-15T11:07:32Z</time>
      </trkpt>
      <trkpt lat="46.00554" lon="6.47059">
        <ele>2193.39</ele>
        <time>2022-01-15T11:07:49Z</time>
      </trkpt>
      <trkpt lat="46.00555" lon="6.47064">
        <ele>2196.75</ele>
        <time>2022-01-15T11:07:59Z</time>
      </trkpt>
      <trkpt lat="46.00556" lon="6.47065">
        <ele>2197.23</ele>
        <time>2022-01-15T11:08:03Z</time>
      </trkpt>
      <trkpt lat="46.00555" lon="6.47063">
        <ele>2197.71</ele>
        <time>2022-01-15T11:08:21Z</time>
      </trkpt>
      <trkpt lat="46.00562" lon="6.47054">
        <ele>2200.59</ele>
        <time>2022-01-15T11:08:39Z</time>
      </trkpt>
      <trkpt lat="46.00565" lon="6.47044">
        <ele>2203.48</ele>
        <time>2022-01-15T11:08:59Z</time>
      </trkpt>
      <trkpt lat="46.00567" lon="6.47036">
        <ele>2206.84</ele>
        <time>2022-01-15T11:09:12Z</time>
      </trkpt>
      <trkpt lat="46.00566" lon="6.47034">
        <ele>2206.84</ele>
        <time>2022-01-15T11:09:16Z</time>
      </trkpt>
      <trkpt lat="46.00565" lon="6.4703">
        <ele>2207.81</ele>
        <time>2022-01-15T11:09:22Z</time>
      </trkpt>
      <trkpt lat="46.00566" lon="6.47022">
        <ele>2209.25</ele>
        <time>2022-01-15T11:09:38Z</time>
      </trkpt>
      <trkpt lat="46.00562" lon="6.47023">
        <ele>2209.25</ele>
        <time>2022-01-15T11:09:50Z</time>
      </trkpt>
      <trkpt lat="46.00561" lon="6.47026">
        <ele>2213.09</ele>
        <time>2022-01-15T11:10:05Z</time>
      </trkpt>
      <trkpt lat="46.00567" lon="6.4703">
        <ele>2214.53</ele>
        <time>2022-01-15T11:10:20Z</time>
      </trkpt>
      <trkpt lat="46.00572" lon="6.47034">
        <ele>2214.53</ele>
        <time>2022-01-15T11:10:36Z</time>
      </trkpt>
      <trkpt lat="46.00575" lon="6.47025">
        <ele>2216.94</ele>
        <time>2022-01-15T11:10:52Z</time>
      </trkpt>
      <trkpt lat="46.0058" lon="6.47012">
        <ele>2219.82</ele>
        <time>2022-01-15T11:11:12Z</time>
      </trkpt>
      <trkpt lat="46.0058" lon="6.47011">
        <ele>2218.38</ele>
        <time>2022-01-15T11:11:14Z</time>
      </trkpt>
      <trkpt lat="46.00577" lon="6.47003">
        <ele>2220.3</ele>
        <time>2022-01-15T11:11:23Z</time>
      </trkpt>
      <trkpt lat="46.00576" lon="6.46998">
        <ele>2221.26</ele>
        <time>2022-01-15T11:11:29Z</time>
      </trkpt>
      <trkpt lat="46.00571" lon="6.46988">
        <ele>2223.19</ele>
        <time>2022-01-15T11:11:46Z</time>
      </trkpt>
      <trkpt lat="46.0057" lon="6.46982">
        <ele>2224.63</ele>
        <time>2022-01-15T11:11:53Z</time>
      </trkpt>
      <trkpt lat="46.00564" lon="6.46969">
        <ele>2226.07</ele>
        <time>2022-01-15T11:12:10Z</time>
      </trkpt>
      <trkpt lat="46.00563" lon="6.46971">
        <ele>2228.47</ele>
        <time>2022-01-15T11:12:27Z</time>
      </trkpt>
      <trkpt lat="46.00568" lon="6.46973">
        <ele>2231.84</ele>
        <time>2022-01-15T11:12:43Z</time>
      </trkpt>
      <trkpt lat="46.00571" lon="6.46972">
        <ele>2233.28</ele>
        <time>2022-01-15T11:12:51Z</time>
      </trkpt>
      <trkpt lat="46.00572" lon="6.46972">
        <ele>2232.32</ele>
        <time>2022-01-15T11:12:53Z</time>
      </trkpt>
      <trkpt lat="46.00573" lon="6.46971">
        <ele>2233.76</ele>
        <time>2022-01-15T11:12:59Z</time>
      </trkpt>
      <trkpt lat="46.0058" lon="6.46969">
        <ele>2237.13</ele>
        <time>2022-01-15T11:13:18Z</time>
      </trkpt>
      <trkpt lat="46.00588" lon="6.46968">
        <ele>2240.49</ele>
        <time>2022-01-15T11:13:36Z</time>
      </trkpt>
      <trkpt lat="46.00592" lon="6.46968">
        <ele>2242.89</ele>
        <time>2022-01-15T11:13:50Z</time>
      </trkpt>
      <trkpt lat="46.006" lon="6.46959">
        <ele>2244.82</ele>
        <time>2022-01-15T11:14:08Z</time>
      </trkpt>
      <trkpt lat="46.00601" lon="6.46948">
        <ele>2247.22</ele>
        <time>2022-01-15T11:14:26Z</time>
      </trkpt>
      <trkpt lat="46.006" lon="6.46944">
        <ele>2247.22</ele>
        <time>2022-01-15T11:14:48Z</time>
      </trkpt>
      <trkpt lat="46.00597" lon="6.46943">
        <ele>2246.74</ele>
        <time>2022-01-15T11:15:11Z</time>
      </trkpt>
      <trkpt lat="46.00593" lon="6.46942">
        <ele>2247.7</ele>
        <time>2022-01-15T11:15:23Z</time>
      </trkpt>
      <trkpt lat="46.00593" lon="6.46942">
        <ele>2247.7</ele>
        <time>2022-01-15T11:15:33Z</time>
      </trkpt>
      <trkpt lat="46.00595" lon="6.46943">
        <ele>2247.22</ele>
        <time>2022-01-15T11:15:56Z</time>
      </trkpt>
      <trkpt lat="46.00594" lon="6.46944">
        <ele>2247.22</ele>
        <time>2022-01-15T11:16:11Z</time>
      </trkpt>
      <trkpt lat="46.00595" lon="6.46945">
        <ele>2247.22</ele>
        <time>2022-01-15T11:16:38Z</time>
      </trkpt>
      <trkpt lat="46.00596" lon="6.46943">
        <ele>2246.74</ele>
        <time>2022-01-15T11:16:58Z</time>
      </trkpt>
      <trkpt lat="46.00593" lon="6.46941">
        <ele>2247.22</ele>
        <time>2022-01-15T11:17:46Z</time>
      </trkpt>
      <trkpt lat="46.00591" lon="6.46941">
        <ele>2247.22</ele>
        <time>2022-01-15T11:18:30Z</time>
      </trkpt>
      <trkpt lat="46.00585" lon="6.46939">
        <ele>2247.22</ele>
        <time>2022-01-15T11:19:14Z</time>
      </trkpt>
      <trkpt lat="46.00591" lon="6.46941">
        <ele>2247.7</ele>
        <time>2022-01-15T11:20:05Z</time>
      </trkpt>
      <trkpt lat="46.0059" lon="6.4694">
        <ele>2248.18</ele>
        <time>2022-01-15T11:20:43Z</time>
      </trkpt>
      <trkpt lat="46.00594" lon="6.46943">
        <ele>2245.78</ele>
        <time>2022-01-15T11:20:57Z</time>
      </trkpt>
      <trkpt lat="46.00593" lon="6.46942">
        <ele>2251.54</ele>
        <time>2022-01-15T11:20:58Z</time>
      </trkpt>
      <trkpt lat="46.00592" lon="6.46941">
        <ele>2248.18</ele>
        <time>2022-01-15T11:20:59Z</time>
      </trkpt>
      <trkpt lat="46.00589" lon="6.46941">
        <ele>2248.18</ele>
        <time>2022-01-15T11:21:46Z</time>
      </trkpt>
      <trkpt lat="46.00588" lon="6.46942">
        <ele>2248.18</ele>
        <time>2022-01-15T11:22:16Z</time>
      </trkpt>
      <trkpt lat="46.00588" lon="6.46939">
        <ele>2249.14</ele>
        <time>2022-01-15T11:22:50Z</time>
      </trkpt>
      <trkpt lat="46.00588" lon="6.46939">
        <ele>2249.14</ele>
        <time>2022-01-15T11:23:12Z</time>
      </trkpt>
      <trkpt lat="46.00592" lon="6.46942">
        <ele>2247.7</ele>
        <time>2022-01-15T11:23:28Z</time>
      </trkpt>
      <trkpt lat="46.00592" lon="6.46942">
        <ele>2249.14</ele>
        <time>2022-01-15T11:23:36Z</time>
      </trkpt>
      <trkpt lat="46.00588" lon="6.4694">
        <ele>2249.62</ele>
        <time>2022-01-15T11:24:04Z</time>
      </trkpt>
      <trkpt lat="46.00589" lon="6.46942">
        <ele>2249.62</ele>
        <time>2022-01-15T11:24:37Z</time>
      </trkpt>
      <trkpt lat="46.00589" lon="6.46943">
        <ele>2249.62</ele>
        <time>2022-01-15T11:25:17Z</time>
      </trkpt>
      <trkpt lat="46.00591" lon="6.46941">
        <ele>2249.62</ele>
        <time>2022-01-15T11:25:56Z</time>
      </trkpt>
      <trkpt lat="46.00591" lon="6.46944">
        <ele>2250.1</ele>
        <time>2022-01-15T11:26:43Z</time>
      </trkpt>
      <trkpt lat="46.00589" lon="6.46941">
        <ele>2250.1</ele>
        <time>2022-01-15T11:27:23Z</time>
      </trkpt>
      <trkpt lat="46.00591" lon="6.4694">
        <ele>2250.58</ele>
        <time>2022-01-15T11:28:22Z</time>
      </trkpt>
      <trkpt lat="46.00589" lon="6.4694">
        <ele>2250.58</ele>
        <time>2022-01-15T11:29:04Z</time>
      </trkpt>
      <trkpt lat="46.00587" lon="6.4694">
        <ele>2250.58</ele>
        <time>2022-01-15T11:29:53Z</time>
      </trkpt>
      <trkpt lat="46.0059" lon="6.46942">
        <ele>2250.1</ele>
        <time>2022-01-15T11:30:18Z</time>
      </trkpt>
      <trkpt lat="46.00589" lon="6.4694">
        <ele>2255.87</ele>
        <time>2022-01-15T11:30:41Z</time>
      </trkpt>
      <trkpt lat="46.00589" lon="6.4694">
        <ele>2252.03</ele>
        <time>2022-01-15T11:30:42Z</time>
      </trkpt>
      <trkpt lat="46.00589" lon="6.4694">
        <ele>2251.06</ele>
        <time>2022-01-15T11:30:44Z</time>
      </trkpt>
      <trkpt lat="46.0059" lon="6.4694">
        <ele>2251.06</ele>
        <time>2022-01-15T11:31:19Z</time>
      </trkpt>
      <trkpt lat="46.00591" lon="6.46941">
        <ele>2251.06</ele>
        <time>2022-01-15T11:31:54Z</time>
      </trkpt>
      <trkpt lat="46.0059" lon="6.46941">
        <ele>2251.06</ele>
        <time>2022-01-15T11:32:30Z</time>
      </trkpt>
      <trkpt lat="46.0059" lon="6.46941">
        <ele>2251.06</ele>
        <time>2022-01-15T11:32:34Z</time>
      </trkpt>
      <trkpt lat="46.00588" lon="6.46938">
        <ele>2245.78</ele>
        <time>2022-01-15T11:32:36Z</time>
      </trkpt>
      <trkpt lat="46.00589" lon="6.46939">
        <ele>2251.06</ele>
        <time>2022-01-15T11:32:37Z</time>
      </trkpt>
      <trkpt lat="46.00589" lon="6.46939">
        <ele>2251.06</ele>
        <time>2022-01-15T11:32:38Z</time>
      </trkpt>
      <trkpt lat="46.00589" lon="6.4694">
        <ele>2263.56</ele>
        <time>2022-01-15T11:32:39Z</time>
      </trkpt>
      <trkpt lat="46.0059" lon="6.46941">
        <ele>2252.99</ele>
        <time>2022-01-15T11:32:40Z</time>
      </trkpt>
      <trkpt lat="46.00589" lon="6.46941">
        <ele>2251.06</ele>
        <time>2022-01-15T11:32:42Z</time>
      </trkpt>
      <trkpt lat="46.00589" lon="6.46943">
        <ele>2251.06</ele>
        <time>2022-01-15T11:33:23Z</time>
      </trkpt>
      <trkpt lat="46.00591" lon="6.46942">
        <ele>2252.51</ele>
        <time>2022-01-15T11:33:42Z</time>
      </trkpt>
      <trkpt lat="46.0059" lon="6.46941">
        <ele>2246.26</ele>
        <time>2022-01-15T11:33:44Z</time>
      </trkpt>
      <trkpt lat="46.0059" lon="6.46941">
        <ele>2249.14</ele>
        <time>2022-01-15T11:33:45Z</time>
      </trkpt>
      <trkpt lat="46.0059" lon="6.46941">
        <ele>2253.47</ele>
        <time>2022-01-15T11:33:46Z</time>
      </trkpt>
      <trkpt lat="46.0059" lon="6.46941">
        <ele>2249.62</ele>
        <time>2022-01-15T11:33:47Z</time>
      </trkpt>
      <trkpt lat="46.0059" lon="6.46941">
        <ele>2257.31</ele>
        <time>2022-01-15T11:33:48Z</time>
      </trkpt>
      <trkpt lat="46.0059" lon="6.46941">
        <ele>2252.03</ele>
        <time>2022-01-15T11:33:49Z</time>
      </trkpt>
      <trkpt lat="46.0059" lon="6.46942">
        <ele>2251.54</ele>
        <time>2022-01-15T11:33:51Z</time>
      </trkpt>
      <trkpt lat="46.00593" lon="6.46942">
        <ele>2251.06</ele>
        <time>2022-01-15T11:34:24Z</time>
      </trkpt>
      <trkpt lat="46.00592" lon="6.46942">
        <ele>2251.06</ele>
        <time>2022-01-15T11:34:36Z</time>
      </trkpt>
      <trkpt lat="46.00595" lon="6.46942">
        <ele>2251.54</ele>
        <time>2022-01-15T11:34:55Z</time>
      </trkpt>
      <trkpt lat="46.00591" lon="6.46941">
        <ele>2251.06</ele>
        <time>2022-01-15T11:35:26Z</time>
      </trkpt>
      <trkpt lat="46.00592" lon="6.4694">
        <ele>2251.54</ele>
        <time>2022-01-15T11:35:54Z</time>
      </trkpt>
      <trkpt lat="46.00588" lon="6.46941">
        <ele>2251.54</ele>
        <time>2022-01-15T11:36:26Z</time>
      </trkpt>
      <trkpt lat="46.00584" lon="6.46938">
        <ele>2251.54</ele>
        <time>2022-01-15T11:36:57Z</time>
      </trkpt>
      <trkpt lat="46.00587" lon="6.46941">
        <ele>2251.54</ele>
        <time>2022-01-15T11:37:38Z</time>
      </trkpt>
      <trkpt lat="46.00589" lon="6.46941">
        <ele>2252.03</ele>
        <time>2022-01-15T11:38:09Z</time>
      </trkpt>
      <trkpt lat="46.00589" lon="6.4694">
        <ele>2252.03</ele>
        <time>2022-01-15T11:38:43Z</time>
      </trkpt>
      <trkpt lat="46.00589" lon="6.4694">
        <ele>2252.51</ele>
        <time>2022-01-15T11:39:21Z</time>
      </trkpt>
      <trkpt lat="46.00592" lon="6.46941">
        <ele>2252.51</ele>
        <time>2022-01-15T11:40:08Z</time>
      </trkpt>
      <trkpt lat="46.00586" lon="6.46941">
        <ele>2252.51</ele>
        <time>2022-01-15T11:40:56Z</time>
      </trkpt>
      <trkpt lat="46.00588" lon="6.46941">
        <ele>2252.51</ele>
        <time>2022-01-15T11:41:36Z</time>
      </trkpt>
      <trkpt lat="46.0059" lon="6.46942">
        <ele>2252.03</ele>
        <time>2022-01-15T11:42:05Z</time>
      </trkpt>
      <trkpt lat="46.00591" lon="6.46942">
        <ele>2252.03</ele>
        <time>2022-01-15T11:42:34Z</time>
      </trkpt>
      <trkpt lat="46.00591" lon="6.46941">
        <ele>2252.03</ele>
        <time>2022-01-15T11:43:01Z</time>
      </trkpt>
      <trkpt lat="46.00593" lon="6.46941">
        <ele>2252.03</ele>
        <time>2022-01-15T11:43:29Z</time>
      </trkpt>
      <trkpt lat="46.00591" lon="6.46942">
        <ele>2253.95</ele>
        <time>2022-01-15T11:43:36Z</time>
      </trkpt>
      <trkpt lat="46.0059" lon="6.46942">
        <ele>2255.39</ele>
        <time>2022-01-15T11:43:41Z</time>
      </trkpt>
      <trkpt lat="46.0059" lon="6.46942">
        <ele>2253.95</ele>
        <time>2022-01-15T11:43:44Z</time>
      </trkpt>
      <trkpt lat="46.0059" lon="6.46943">
        <ele>2251.06</ele>
        <time>2022-01-15T11:43:56Z</time>
      </trkpt>
      <trkpt lat="46.00592" lon="6.46941">
        <ele>2253.47</ele>
        <time>2022-01-15T11:44:21Z</time>
      </trkpt>
      <trkpt lat="46.00592" lon="6.46941">
        <ele>2251.54</ele>
        <time>2022-01-15T11:44:32Z</time>
      </trkpt>
      <trkpt lat="46.00594" lon="6.46942">
        <ele>2251.54</ele>
        <time>2022-01-15T11:44:59Z</time>
      </trkpt>
      <trkpt lat="46.00593" lon="6.46941">
        <ele>2254.43</ele>
        <time>2022-01-15T11:45:00Z</time>
      </trkpt>
      <trkpt lat="46.00593" lon="6.46941">
        <ele>2254.43</ele>
        <time>2022-01-15T11:45:01Z</time>
      </trkpt>
      <trkpt lat="46.00591" lon="6.46941">
        <ele>2252.99</ele>
        <time>2022-01-15T11:45:09Z</time>
      </trkpt>
      <trkpt lat="46.00591" lon="6.46943">
        <ele>2253.47</ele>
        <time>2022-01-15T11:45:18Z</time>
      </trkpt>
      <trkpt lat="46.00592" lon="6.46943">
        <ele>2253.47</ele>
        <time>2022-01-15T11:45:19Z</time>
      </trkpt>
      <trkpt lat="46.0059" lon="6.46946">
        <ele>2253.47</ele>
        <time>2022-01-15T11:45:21Z</time>
      </trkpt>
      <trkpt lat="46.00587" lon="6.46945">
        <ele>2251.06</ele>
        <time>2022-01-15T11:45:22Z</time>
      </trkpt>
      <trkpt lat="46.00585" lon="6.46944">
        <ele>2251.06</ele>
        <time>2022-01-15T11:45:23Z</time>
      </trkpt>
      <trkpt lat="46.00581" lon="6.46942">
        <ele>2251.06</ele>
        <time>2022-01-15T11:45:24Z</time>
      </trkpt>
      <trkpt lat="46.0057" lon="6.46936">
        <ele>2248.66</ele>
        <time>2022-01-15T11:45:28Z</time>
      </trkpt>
      <trkpt lat="46.00563" lon="6.46932">
        <ele>2247.22</ele>
        <time>2022-01-15T11:45:30Z</time>
      </trkpt>
      <trkpt lat="46.0055" lon="6.46925">
        <ele>2245.3</ele>
        <time>2022-01-15T11:45:36Z</time>
      </trkpt>
      <trkpt lat="46.00548" lon="6.46933">
        <ele>2242.41</ele>
        <time>2022-01-15T11:45:39Z</time>
      </trkpt>
      <trkpt lat="46.00546" lon="6.46934">
        <ele>2242.41</ele>
        <time>2022-01-15T11:45:47Z</time>
      </trkpt>
      <trkpt lat="46.00547" lon="6.46936">
        <ele>2241.93</ele>
        <time>2022-01-15T11:46:18Z</time>
      </trkpt>
      <trkpt lat="46.00547" lon="6.46944">
        <ele>2239.53</ele>
        <time>2022-01-15T11:46:21Z</time>
      </trkpt>
      <trkpt lat="46.00549" lon="6.46947">
        <ele>2239.53</ele>
        <time>2022-01-15T11:46:22Z</time>
      </trkpt>
      <trkpt lat="46.00552" lon="6.46957">
        <ele>2236.16</ele>
        <time>2022-01-15T11:46:25Z</time>
      </trkpt>
      <trkpt lat="46.00546" lon="6.46963">
        <ele>2232.32</ele>
        <time>2022-01-15T11:46:30Z</time>
      </trkpt>
      <trkpt lat="46.00547" lon="6.46972">
        <ele>2229.43</ele>
        <time>2022-01-15T11:46:33Z</time>
      </trkpt>
      <trkpt lat="46.00546" lon="6.46973">
        <ele>2232.8</ele>
        <time>2022-01-15T11:46:34Z</time>
      </trkpt>
      <trkpt lat="46.00543" lon="6.46972">
        <ele>2228.47</ele>
        <time>2022-01-15T11:46:36Z</time>
      </trkpt>
      <trkpt lat="46.0054" lon="6.46977">
        <ele>2225.59</ele>
        <time>2022-01-15T11:46:38Z</time>
      </trkpt>
      <trkpt lat="46.0054" lon="6.4698">
        <ele>2225.59</ele>
        <time>2022-01-15T11:46:39Z</time>
      </trkpt>
      <trkpt lat="46.00534" lon="6.4698">
        <ele>2221.74</ele>
        <time>2022-01-15T11:46:43Z</time>
      </trkpt>
      <trkpt lat="46.00534" lon="6.4698">
        <ele>2221.26</ele>
        <time>2022-01-15T11:46:44Z</time>
      </trkpt>
      <trkpt lat="46.00532" lon="6.46977">
        <ele>2220.3</ele>
        <time>2022-01-15T11:46:46Z</time>
      </trkpt>
      <trkpt lat="46.00526" lon="6.46966">
        <ele>2216.94</ele>
        <time>2022-01-15T11:46:49Z</time>
      </trkpt>
      <trkpt lat="46.00524" lon="6.46962">
        <ele>2216.94</ele>
        <time>2022-01-15T11:46:50Z</time>
      </trkpt>
      <trkpt lat="46.00519" lon="6.46951">
        <ele>2215.98</ele>
        <time>2022-01-15T11:46:53Z</time>
      </trkpt>
      <trkpt lat="46.0052" lon="6.46947">
        <ele>2216.46</ele>
        <time>2022-01-15T11:47:07Z</time>
      </trkpt>
      <trkpt lat="46.00515" lon="6.46941">
        <ele>2215.5</ele>
        <time>2022-01-15T11:47:28Z</time>
      </trkpt>
      <trkpt lat="46.00514" lon="6.46943">
        <ele>2215.5</ele>
        <time>2022-01-15T11:47:50Z</time>
      </trkpt>
      <trkpt lat="46.00496" lon="6.46913">
        <ele>2212.61</ele>
        <time>2022-01-15T11:48:01Z</time>
      </trkpt>
      <trkpt lat="46.00485" lon="6.46899">
        <ele>2212.13</ele>
        <time>2022-01-15T11:48:10Z</time>
      </trkpt>
      <trkpt lat="46.00487" lon="6.469">
        <ele>2212.61</ele>
        <time>2022-01-15T11:48:32Z</time>
      </trkpt>
      <trkpt lat="46.00481" lon="6.46896">
        <ele>2211.17</ele>
        <time>2022-01-15T11:48:52Z</time>
      </trkpt>
      <trkpt lat="46.00476" lon="6.46891">
        <ele>2210.21</ele>
        <time>2022-01-15T11:48:55Z</time>
      </trkpt>
      <trkpt lat="46.00472" lon="6.46903">
        <ele>2206.36</ele>
        <time>2022-01-15T11:48:59Z</time>
      </trkpt>
      <trkpt lat="46.00464" lon="6.46897">
        <ele>2202.04</ele>
        <time>2022-01-15T11:49:02Z</time>
      </trkpt>
      <trkpt lat="46.0046" lon="6.46902">
        <ele>2196.75</ele>
        <time>2022-01-15T11:49:04Z</time>
      </trkpt>
      <trkpt lat="46.0046" lon="6.46907">
        <ele>2198.67</ele>
        <time>2022-01-15T11:49:05Z</time>
      </trkpt>
      <trkpt lat="46.00453" lon="6.46905">
        <ele>2194.83</ele>
        <time>2022-01-15T11:49:09Z</time>
      </trkpt>
      <trkpt lat="46.00451" lon="6.46901">
        <ele>2194.83</ele>
        <time>2022-01-15T11:49:10Z</time>
      </trkpt>
      <trkpt lat="46.00449" lon="6.46897">
        <ele>2191.46</ele>
        <time>2022-01-15T11:49:11Z</time>
      </trkpt>
      <trkpt lat="46.00446" lon="6.46907">
        <ele>2187.14</ele>
        <time>2022-01-15T11:49:14Z</time>
      </trkpt>
      <trkpt lat="46.00443" lon="6.46906">
        <ele>2186.18</ele>
        <time>2022-01-15T11:49:18Z</time>
      </trkpt>
      <trkpt lat="46.00439" lon="6.46915">
        <ele>2180.89</ele>
        <time>2022-01-15T11:49:22Z</time>
      </trkpt>
      <trkpt lat="46.00439" lon="6.46916">
        <ele>2180.89</ele>
        <time>2022-01-15T11:49:23Z</time>
      </trkpt>
      <trkpt lat="46.00441" lon="6.46918">
        <ele>2183.29</ele>
        <time>2022-01-15T11:49:30Z</time>
      </trkpt>
      <trkpt lat="46.00442" lon="6.46926">
        <ele>2179.93</ele>
        <time>2022-01-15T11:49:55Z</time>
      </trkpt>
      <trkpt lat="46.00442" lon="6.46929">
        <ele>2179.93</ele>
        <time>2022-01-15T11:49:56Z</time>
      </trkpt>
      <trkpt lat="46.00435" lon="6.46928">
        <ele>2176.08</ele>
        <time>2022-01-15T11:49:59Z</time>
      </trkpt>
      <trkpt lat="46.00431" lon="6.46932">
        <ele>2169.83</ele>
        <time>2022-01-15T11:50:02Z</time>
      </trkpt>
      <trkpt lat="46.00432" lon="6.46936">
        <ele>2173.2</ele>
        <time>2022-01-15T11:50:03Z</time>
      </trkpt>
      <trkpt lat="46.00432" lon="6.46939">
        <ele>2170.79</ele>
        <time>2022-01-15T11:50:04Z</time>
      </trkpt>
      <trkpt lat="46.00426" lon="6.46926">
        <ele>2166.95</ele>
        <time>2022-01-15T11:50:07Z</time>
      </trkpt>
      <trkpt lat="46.00418" lon="6.46923">
        <ele>2161.66</ele>
        <time>2022-01-15T11:50:09Z</time>
      </trkpt>
      <trkpt lat="46.00415" lon="6.46925">
        <ele>2161.66</ele>
        <time>2022-01-15T11:50:10Z</time>
      </trkpt>
      <trkpt lat="46.00408" lon="6.46926">
        <ele>2163.1</ele>
        <time>2022-01-15T11:50:12Z</time>
      </trkpt>
      <trkpt lat="46.00405" lon="6.46921">
        <ele>2158.3</ele>
        <time>2022-01-15T11:50:13Z</time>
      </trkpt>
      <trkpt lat="46.004" lon="6.46908">
        <ele>2154.93</ele>
        <time>2022-01-15T11:50:17Z</time>
      </trkpt>
      <trkpt lat="46.00396" lon="6.469">
        <ele>2154.93</ele>
        <time>2022-01-15T11:50:20Z</time>
      </trkpt>
      <trkpt lat="46.00393" lon="6.4689">
        <ele>2152.53</ele>
        <time>2022-01-15T11:50:23Z</time>
      </trkpt>
      <trkpt lat="46.00392" lon="6.46887">
        <ele>2151.57</ele>
        <time>2022-01-15T11:50:24Z</time>
      </trkpt>
      <trkpt lat="46.00388" lon="6.46878">
        <ele>2151.57</ele>
        <time>2022-01-15T11:50:27Z</time>
      </trkpt>
      <trkpt lat="46.00384" lon="6.46876">
        <ele>2149.65</ele>
        <time>2022-01-15T11:50:29Z</time>
      </trkpt>
      <trkpt lat="46.00384" lon="6.4689">
        <ele>2146.28</ele>
        <time>2022-01-15T11:50:32Z</time>
      </trkpt>
      <trkpt lat="46.00383" lon="6.46899">
        <ele>2145.8</ele>
        <time>2022-01-15T11:50:35Z</time>
      </trkpt>
      <trkpt lat="46.00379" lon="6.46887">
        <ele>2142.92</ele>
        <time>2022-01-15T11:50:37Z</time>
      </trkpt>
      <trkpt lat="46.00374" lon="6.46879">
        <ele>2142.44</ele>
        <time>2022-01-15T11:50:39Z</time>
      </trkpt>
      <trkpt lat="46.00364" lon="6.46882">
        <ele>2135.23</ele>
        <time>2022-01-15T11:50:42Z</time>
      </trkpt>
      <trkpt lat="46.00363" lon="6.46891">
        <ele>2131.86</ele>
        <time>2022-01-15T11:50:45Z</time>
      </trkpt>
      <trkpt lat="46.00362" lon="6.46902">
        <ele>2127.53</ele>
        <time>2022-01-15T11:50:48Z</time>
      </trkpt>
      <trkpt lat="46.00358" lon="6.46906">
        <ele>2126.09</ele>
        <time>2022-01-15T11:50:54Z</time>
      </trkpt>
      <trkpt lat="46.00349" lon="6.46902">
        <ele>2124.65</ele>
        <time>2022-01-15T11:51:11Z</time>
      </trkpt>
      <trkpt lat="46.0035" lon="6.46925">
        <ele>2123.21</ele>
        <time>2022-01-15T11:51:18Z</time>
      </trkpt>
      <trkpt lat="46.00343" lon="6.46927">
        <ele>2118.88</ele>
        <time>2022-01-15T11:51:20Z</time>
      </trkpt>
      <trkpt lat="46.00334" lon="6.46927">
        <ele>2115.52</ele>
        <time>2022-01-15T11:51:21Z</time>
      </trkpt>
      <trkpt lat="46.0033" lon="6.46927">
        <ele>2117.44</ele>
        <time>2022-01-15T11:51:22Z</time>
      </trkpt>
      <trkpt lat="46.00315" lon="6.46927">
        <ele>2114.08</ele>
        <time>2022-01-15T11:51:24Z</time>
      </trkpt>
      <trkpt lat="46.003" lon="6.46926">
        <ele>2112.63</ele>
        <time>2022-01-15T11:51:28Z</time>
      </trkpt>
      <trkpt lat="46.00295" lon="6.46919">
        <ele>2115.04</ele>
        <time>2022-01-15T11:51:34Z</time>
      </trkpt>
      <trkpt lat="46.00296" lon="6.46919">
        <ele>2115.04</ele>
        <time>2022-01-15T11:51:50Z</time>
      </trkpt>
      <trkpt lat="46.00296" lon="6.4692">
        <ele>2113.6</ele>
        <time>2022-01-15T11:52:18Z</time>
      </trkpt>
      <trkpt lat="46.00296" lon="6.46921">
        <ele>2114.08</ele>
        <time>2022-01-15T11:52:52Z</time>
      </trkpt>
      <trkpt lat="46.00296" lon="6.46919">
        <ele>2114.56</ele>
        <time>2022-01-15T11:53:25Z</time>
      </trkpt>
      <trkpt lat="46.00283" lon="6.46918">
        <ele>2110.23</ele>
        <time>2022-01-15T11:53:29Z</time>
      </trkpt>
      <trkpt lat="46.00269" lon="6.46915">
        <ele>2106.87</ele>
        <time>2022-01-15T11:53:31Z</time>
      </trkpt>
      <trkpt lat="46.0025" lon="6.46911">
        <ele>2110.71</ele>
        <time>2022-01-15T11:53:37Z</time>
      </trkpt>
      <trkpt lat="46.00251" lon="6.46907">
        <ele>2109.75</ele>
        <time>2022-01-15T11:53:53Z</time>
      </trkpt>
      <trkpt lat="46.00247" lon="6.46904">
        <ele>2105.91</ele>
        <time>2022-01-15T11:53:59Z</time>
      </trkpt>
      <trkpt lat="46.00234" lon="6.46915">
        <ele>2107.35</ele>
        <time>2022-01-15T11:54:03Z</time>
      </trkpt>
      <trkpt lat="46.0023" lon="6.46914">
        <ele>2101.58</ele>
        <time>2022-01-15T11:54:04Z</time>
      </trkpt>
      <trkpt lat="46.00222" lon="6.46911">
        <ele>2097.73</ele>
        <time>2022-01-15T11:54:06Z</time>
      </trkpt>
      <trkpt lat="46.00217" lon="6.4691">
        <ele>2102.54</ele>
        <time>2022-01-15T11:54:07Z</time>
      </trkpt>
      <trkpt lat="46.00209" lon="6.46905">
        <ele>2096.29</ele>
        <time>2022-01-15T11:54:09Z</time>
      </trkpt>
      <trkpt lat="46.00205" lon="6.46905">
        <ele>2097.73</ele>
        <time>2022-01-15T11:54:10Z</time>
      </trkpt>
      <trkpt lat="46.00197" lon="6.46904">
        <ele>2091</ele>
        <time>2022-01-15T11:54:12Z</time>
      </trkpt>
      <trkpt lat="46.00192" lon="6.46903">
        <ele>2090.52</ele>
        <time>2022-01-15T11:54:13Z</time>
      </trkpt>
      <trkpt lat="46.00187" lon="6.46907">
        <ele>2090.52</ele>
        <time>2022-01-15T11:54:14Z</time>
      </trkpt>
      <trkpt lat="46.00184" lon="6.4691">
        <ele>2089.08</ele>
        <time>2022-01-15T11:54:15Z</time>
      </trkpt>
      <trkpt lat="46.0018" lon="6.46911">
        <ele>2087.16</ele>
        <time>2022-01-15T11:54:16Z</time>
      </trkpt>
      <trkpt lat="46.00177" lon="6.4691">
        <ele>2083.79</ele>
        <time>2022-01-15T11:54:17Z</time>
      </trkpt>
      <trkpt lat="46.00174" lon="6.46912">
        <ele>2085.72</ele>
        <time>2022-01-15T11:54:18Z</time>
      </trkpt>
      <trkpt lat="46.00173" lon="6.46916">
        <ele>2083.79</ele>
        <time>2022-01-15T11:54:19Z</time>
      </trkpt>
      <trkpt lat="46.00172" lon="6.46922">
        <ele>2084.28</ele>
        <time>2022-01-15T11:54:20Z</time>
      </trkpt>
      <trkpt lat="46.00166" lon="6.46933">
        <ele>2078.99</ele>
        <time>2022-01-15T11:54:22Z</time>
      </trkpt>
      <trkpt lat="46.00153" lon="6.46937">
        <ele>2075.14</ele>
        <time>2022-01-15T11:54:24Z</time>
      </trkpt>
      <trkpt lat="46.00146" lon="6.46936">
        <ele>2078.03</ele>
        <time>2022-01-15T11:54:25Z</time>
      </trkpt>
      <trkpt lat="46.00141" lon="6.46935">
        <ele>2078.51</ele>
        <time>2022-01-15T11:54:26Z</time>
      </trkpt>
      <trkpt lat="46.00126" lon="6.46926">
        <ele>2079.95</ele>
        <time>2022-01-15T11:54:34Z</time>
      </trkpt>
      <trkpt lat="46.0012" lon="6.46925">
        <ele>2081.39</ele>
        <time>2022-01-15T11:54:48Z</time>
      </trkpt>
      <trkpt lat="46.00115" lon="6.46921">
        <ele>2080.43</ele>
        <time>2022-01-15T11:55:06Z</time>
      </trkpt>
      <trkpt lat="46.00112" lon="6.46922">
        <ele>2082.35</ele>
        <time>2022-01-15T11:55:32Z</time>
      </trkpt>
      <trkpt lat="46.0011" lon="6.46921">
        <ele>2081.39</ele>
        <time>2022-01-15T11:55:42Z</time>
      </trkpt>
      <trkpt lat="46.00108" lon="6.46922">
        <ele>2079.95</ele>
        <time>2022-01-15T11:55:44Z</time>
      </trkpt>
      <trkpt lat="46.00105" lon="6.46923">
        <ele>2079.95</ele>
        <time>2022-01-15T11:55:45Z</time>
      </trkpt>
      <trkpt lat="46.00103" lon="6.46926">
        <ele>2079.47</ele>
        <time>2022-01-15T11:55:46Z</time>
      </trkpt>
      <trkpt lat="46.00101" lon="6.46931">
        <ele>2079.47</ele>
        <time>2022-01-15T11:55:47Z</time>
      </trkpt>
      <trkpt lat="46.00098" lon="6.46936">
        <ele>2075.62</ele>
        <time>2022-01-15T11:55:48Z</time>
      </trkpt>
      <trkpt lat="46.00096" lon="6.46935">
        <ele>2073.7</ele>
        <time>2022-01-15T11:55:49Z</time>
      </trkpt>
      <trkpt lat="46.00092" lon="6.46936">
        <ele>2073.7</ele>
        <time>2022-01-15T11:55:50Z</time>
      </trkpt>
      <trkpt lat="46.0009" lon="6.46938">
        <ele>2073.7</ele>
        <time>2022-01-15T11:55:51Z</time>
      </trkpt>
      <trkpt lat="46.00088" lon="6.46943">
        <ele>2073.7</ele>
        <time>2022-01-15T11:55:52Z</time>
      </trkpt>
      <trkpt lat="46.00086" lon="6.4695">
        <ele>2070.82</ele>
        <time>2022-01-15T11:55:53Z</time>
      </trkpt>
      <trkpt lat="46.00086" lon="6.46954">
        <ele>2070.82</ele>
        <time>2022-01-15T11:55:54Z</time>
      </trkpt>
      <trkpt lat="46.00086" lon="6.46958">
        <ele>2068.41</ele>
        <time>2022-01-15T11:55:55Z</time>
      </trkpt>
      <trkpt lat="46.00085" lon="6.46963">
        <ele>2071.3</ele>
        <time>2022-01-15T11:55:56Z</time>
      </trkpt>
      <trkpt lat="46.00081" lon="6.46969">
        <ele>2067.93</ele>
        <time>2022-01-15T11:55:57Z</time>
      </trkpt>
      <trkpt lat="46.00077" lon="6.46975">
        <ele>2066.97</ele>
        <time>2022-01-15T11:55:58Z</time>
      </trkpt>
      <trkpt lat="46.00074" lon="6.4698">
        <ele>2066.97</ele>
        <time>2022-01-15T11:55:59Z</time>
      </trkpt>
      <trkpt lat="46.00071" lon="6.46993">
        <ele>2066.01</ele>
        <time>2022-01-15T11:56:01Z</time>
      </trkpt>
      <trkpt lat="46.00068" lon="6.47003">
        <ele>2063.61</ele>
        <time>2022-01-15T11:56:03Z</time>
      </trkpt>
      <trkpt lat="46.00063" lon="6.47002">
        <ele>2063.13</ele>
        <time>2022-01-15T11:56:14Z</time>
      </trkpt>
      <trkpt lat="46.00057" lon="6.47006">
        <ele>2062.17</ele>
        <time>2022-01-15T11:56:27Z</time>
      </trkpt>
      <trkpt lat="46.00053" lon="6.47004">
        <ele>2061.2</ele>
        <time>2022-01-15T11:56:40Z</time>
      </trkpt>
      <trkpt lat="46.00051" lon="6.47001">
        <ele>2061.2</ele>
        <time>2022-01-15T11:56:58Z</time>
      </trkpt>
      <trkpt lat="46.00051" lon="6.47025">
        <ele>2054.96</ele>
        <time>2022-01-15T11:57:04Z</time>
      </trkpt>
      <trkpt lat="46.00048" lon="6.47036">
        <ele>2053.51</ele>
        <time>2022-01-15T11:57:07Z</time>
      </trkpt>
      <trkpt lat="46.00049" lon="6.47039">
        <ele>2050.15</ele>
        <time>2022-01-15T11:57:08Z</time>
      </trkpt>
      <trkpt lat="46.00047" lon="6.47043">
        <ele>2053.51</ele>
        <time>2022-01-15T11:57:09Z</time>
      </trkpt>
      <trkpt lat="46.00046" lon="6.47042">
        <ele>2049.19</ele>
        <time>2022-01-15T11:57:10Z</time>
      </trkpt>
      <trkpt lat="46.00042" lon="6.47043">
        <ele>2047.75</ele>
        <time>2022-01-15T11:57:11Z</time>
      </trkpt>
      <trkpt lat="46.00041" lon="6.47053">
        <ele>2045.82</ele>
        <time>2022-01-15T11:57:13Z</time>
      </trkpt>
      <trkpt lat="46.00045" lon="6.47062">
        <ele>2043.42</ele>
        <time>2022-01-15T11:57:16Z</time>
      </trkpt>
      <trkpt lat="46.0005" lon="6.47069">
        <ele>2041.5</ele>
        <time>2022-01-15T11:57:18Z</time>
      </trkpt>
      <trkpt lat="46.00052" lon="6.47075">
        <ele>2044.38</ele>
        <time>2022-01-15T11:57:20Z</time>
      </trkpt>
      <trkpt lat="46.0005" lon="6.47084">
        <ele>2038.13</ele>
        <time>2022-01-15T11:57:21Z</time>
      </trkpt>
      <trkpt lat="46.00049" lon="6.47098">
        <ele>2034.29</ele>
        <time>2022-01-15T11:57:24Z</time>
      </trkpt>
      <trkpt lat="46.0005" lon="6.47106">
        <ele>2032.84</ele>
        <time>2022-01-15T11:57:26Z</time>
      </trkpt>
      <trkpt lat="46.00048" lon="6.4711">
        <ele>2027.56</ele>
        <time>2022-01-15T11:57:29Z</time>
      </trkpt>
      <trkpt lat="46.00046" lon="6.47119">
        <ele>2024.19</ele>
        <time>2022-01-15T11:57:31Z</time>
      </trkpt>
      <trkpt lat="46.00048" lon="6.47124">
        <ele>2023.23</ele>
        <time>2022-01-15T11:57:32Z</time>
      </trkpt>
      <trkpt lat="46.00052" lon="6.47138">
        <ele>2018.91</ele>
        <time>2022-01-15T11:57:36Z</time>
      </trkpt>
      <trkpt lat="46.0005" lon="6.47135">
        <ele>2016.5</ele>
        <time>2022-01-15T11:57:37Z</time>
      </trkpt>
      <trkpt lat="46.00035" lon="6.47123">
        <ele>2014.58</ele>
        <time>2022-01-15T11:57:40Z</time>
      </trkpt>
      <trkpt lat="46.00015" lon="6.47121">
        <ele>2014.58</ele>
        <time>2022-01-15T11:57:45Z</time>
      </trkpt>
      <trkpt lat="46.00002" lon="6.47121">
        <ele>2015.06</ele>
        <time>2022-01-15T11:57:57Z</time>
      </trkpt>
      <trkpt lat="46" lon="6.4712">
        <ele>2014.58</ele>
        <time>2022-01-15T11:58:25Z</time>
      </trkpt>
      <trkpt lat="46.00002" lon="6.47121">
        <ele>2013.62</ele>
        <time>2022-01-15T11:58:30Z</time>
      </trkpt>
      <trkpt lat="45.99999" lon="6.47128">
        <ele>2010.73</ele>
        <time>2022-01-15T11:58:33Z</time>
      </trkpt>
      <trkpt lat="45.99998" lon="6.47131">
        <ele>2010.73</ele>
        <time>2022-01-15T11:58:34Z</time>
      </trkpt>
      <trkpt lat="45.99994" lon="6.47138">
        <ele>2005.93</ele>
        <time>2022-01-15T11:58:37Z</time>
      </trkpt>
      <trkpt lat="45.99993" lon="6.47142">
        <ele>2005.93</ele>
        <time>2022-01-15T11:58:38Z</time>
      </trkpt>
      <trkpt lat="45.99992" lon="6.47149">
        <ele>2004.01</ele>
        <time>2022-01-15T11:58:40Z</time>
      </trkpt>
      <trkpt lat="45.99991" lon="6.47153">
        <ele>2001.12</ele>
        <time>2022-01-15T11:58:41Z</time>
      </trkpt>
      <trkpt lat="45.99992" lon="6.47168">
        <ele>1993.43</ele>
        <time>2022-01-15T11:58:46Z</time>
      </trkpt>
      <trkpt lat="45.99989" lon="6.47175">
        <ele>1989.1</ele>
        <time>2022-01-15T11:58:49Z</time>
      </trkpt>
      <trkpt lat="45.99987" lon="6.47182">
        <ele>1985.74</ele>
        <time>2022-01-15T11:58:52Z</time>
      </trkpt>
      <trkpt lat="45.99982" lon="6.47183">
        <ele>1983.82</ele>
        <time>2022-01-15T11:58:54Z</time>
      </trkpt>
      <trkpt lat="45.9998" lon="6.47188">
        <ele>1980.45</ele>
        <time>2022-01-15T11:58:55Z</time>
      </trkpt>
      <trkpt lat="45.9998" lon="6.47193">
        <ele>1979.97</ele>
        <time>2022-01-15T11:58:56Z</time>
      </trkpt>
      <trkpt lat="45.99982" lon="6.47201">
        <ele>1978.53</ele>
        <time>2022-01-15T11:58:58Z</time>
      </trkpt>
      <trkpt lat="45.99983" lon="6.47204">
        <ele>1976.61</ele>
        <time>2022-01-15T11:59:00Z</time>
      </trkpt>
      <trkpt lat="45.99981" lon="6.472">
        <ele>1979.01</ele>
        <time>2022-01-15T11:59:08Z</time>
      </trkpt>
      <trkpt lat="45.99978" lon="6.47205">
        <ele>1975.17</ele>
        <time>2022-01-15T11:59:11Z</time>
      </trkpt>
      <trkpt lat="45.99976" lon="6.47204">
        <ele>1975.17</ele>
        <time>2022-01-15T11:59:12Z</time>
      </trkpt>
      <trkpt lat="45.99974" lon="6.47214">
        <ele>1969.4</ele>
        <time>2022-01-15T11:59:15Z</time>
      </trkpt>
      <trkpt lat="45.99974" lon="6.47217">
        <ele>1969.4</ele>
        <time>2022-01-15T11:59:16Z</time>
      </trkpt>
      <trkpt lat="45.99976" lon="6.4722">
        <ele>1968.44</ele>
        <time>2022-01-15T11:59:18Z</time>
      </trkpt>
      <trkpt lat="45.99981" lon="6.4723">
        <ele>1966.51</ele>
        <time>2022-01-15T11:59:21Z</time>
      </trkpt>
      <trkpt lat="45.9998" lon="6.47234">
        <ele>1963.15</ele>
        <time>2022-01-15T11:59:22Z</time>
      </trkpt>
      <trkpt lat="45.99978" lon="6.4725">
        <ele>1957.38</ele>
        <time>2022-01-15T11:59:25Z</time>
      </trkpt>
      <trkpt lat="45.9998" lon="6.47256">
        <ele>1957.86</ele>
        <time>2022-01-15T11:59:26Z</time>
      </trkpt>
      <trkpt lat="45.99983" lon="6.47269">
        <ele>1950.65</ele>
        <time>2022-01-15T11:59:28Z</time>
      </trkpt>
      <trkpt lat="45.99996" lon="6.47281">
        <ele>1950.65</ele>
        <time>2022-01-15T11:59:39Z</time>
      </trkpt>
      <trkpt lat="45.99988" lon="6.47276">
        <ele>1949.21</ele>
        <time>2022-01-15T11:59:46Z</time>
      </trkpt>
      <trkpt lat="45.99987" lon="6.47285">
        <ele>1944.88</ele>
        <time>2022-01-15T11:59:50Z</time>
      </trkpt>
      <trkpt lat="45.99985" lon="6.47288">
        <ele>1944.88</ele>
        <time>2022-01-15T11:59:51Z</time>
      </trkpt>
      <trkpt lat="45.99982" lon="6.47309">
        <ele>1941.52</ele>
        <time>2022-01-15T11:59:56Z</time>
      </trkpt>
      <trkpt lat="45.99976" lon="6.47304">
        <ele>1937.19</ele>
        <time>2022-01-15T12:00:00Z</time>
      </trkpt>
      <trkpt lat="45.99973" lon="6.473">
        <ele>1937.67</ele>
        <time>2022-01-15T12:00:01Z</time>
      </trkpt>
      <trkpt lat="45.99964" lon="6.47291">
        <ele>1937.19</ele>
        <time>2022-01-15T12:00:09Z</time>
      </trkpt>
      <trkpt lat="45.9996" lon="6.47288">
        <ele>1936.23</ele>
        <time>2022-01-15T12:00:19Z</time>
      </trkpt>
      <trkpt lat="45.99956" lon="6.47296">
        <ele>1934.31</ele>
        <time>2022-01-15T12:00:22Z</time>
      </trkpt>
      <trkpt lat="45.99953" lon="6.47298">
        <ele>1932.87</ele>
        <time>2022-01-15T12:00:24Z</time>
      </trkpt>
      <trkpt lat="45.99951" lon="6.47297">
        <ele>1928.54</ele>
        <time>2022-01-15T12:00:25Z</time>
      </trkpt>
      <trkpt lat="45.99947" lon="6.47299">
        <ele>1924.7</ele>
        <time>2022-01-15T12:00:29Z</time>
      </trkpt>
      <trkpt lat="45.99944" lon="6.47311">
        <ele>1924.7</ele>
        <time>2022-01-15T12:00:43Z</time>
      </trkpt>
      <trkpt lat="45.99937" lon="6.47306">
        <ele>1917.01</ele>
        <time>2022-01-15T12:00:47Z</time>
      </trkpt>
      <trkpt lat="45.99935" lon="6.47317">
        <ele>1912.2</ele>
        <time>2022-01-15T12:00:49Z</time>
      </trkpt>
      <trkpt lat="45.99934" lon="6.47325">
        <ele>1906.91</ele>
        <time>2022-01-15T12:00:51Z</time>
      </trkpt>
      <trkpt lat="45.99932" lon="6.47323">
        <ele>1903.07</ele>
        <time>2022-01-15T12:00:52Z</time>
      </trkpt>
      <trkpt lat="45.99928" lon="6.47319">
        <ele>1901.14</ele>
        <time>2022-01-15T12:00:53Z</time>
      </trkpt>
      <trkpt lat="45.99908" lon="6.47297">
        <ele>1902.11</ele>
        <time>2022-01-15T12:01:02Z</time>
      </trkpt>
      <trkpt lat="45.99903" lon="6.47295">
        <ele>1902.11</ele>
        <time>2022-01-15T12:01:26Z</time>
      </trkpt>
      <trkpt lat="45.99899" lon="6.473">
        <ele>1900.66</ele>
        <time>2022-01-15T12:01:29Z</time>
      </trkpt>
      <trkpt lat="45.99899" lon="6.47307">
        <ele>1896.82</ele>
        <time>2022-01-15T12:01:32Z</time>
      </trkpt>
      <trkpt lat="45.9989" lon="6.47307">
        <ele>1895.38</ele>
        <time>2022-01-15T12:01:35Z</time>
      </trkpt>
      <trkpt lat="45.99889" lon="6.47312">
        <ele>1893.45</ele>
        <time>2022-01-15T12:01:37Z</time>
      </trkpt>
      <trkpt lat="45.99892" lon="6.47316">
        <ele>1892.01</ele>
        <time>2022-01-15T12:01:39Z</time>
      </trkpt>
      <trkpt lat="45.99891" lon="6.47322">
        <ele>1888.17</ele>
        <time>2022-01-15T12:01:41Z</time>
      </trkpt>
      <trkpt lat="45.99883" lon="6.4732">
        <ele>1887.21</ele>
        <time>2022-01-15T12:01:43Z</time>
      </trkpt>
      <trkpt lat="45.9987" lon="6.47313">
        <ele>1885.28</ele>
        <time>2022-01-15T12:01:47Z</time>
      </trkpt>
      <trkpt lat="45.99855" lon="6.47319">
        <ele>1882.88</ele>
        <time>2022-01-15T12:01:52Z</time>
      </trkpt>
      <trkpt lat="45.99861" lon="6.47327">
        <ele>1879.51</ele>
        <time>2022-01-15T12:01:56Z</time>
      </trkpt>
      <trkpt lat="45.99863" lon="6.47328">
        <ele>1879.51</ele>
        <time>2022-01-15T12:01:57Z</time>
      </trkpt>
      <trkpt lat="45.99866" lon="6.47328">
        <ele>1880</ele>
        <time>2022-01-15T12:02:07Z</time>
      </trkpt>
      <trkpt lat="45.99881" lon="6.47346">
        <ele>1876.63</ele>
        <time>2022-01-15T12:02:14Z</time>
      </trkpt>
      <trkpt lat="45.99881" lon="6.47355">
        <ele>1874.71</ele>
        <time>2022-01-15T12:02:17Z</time>
      </trkpt>
      <trkpt lat="45.99879" lon="6.47356">
        <ele>1873.27</ele>
        <time>2022-01-15T12:02:19Z</time>
      </trkpt>
      <trkpt lat="45.99873" lon="6.47362">
        <ele>1871.34</ele>
        <time>2022-01-15T12:02:22Z</time>
      </trkpt>
      <trkpt lat="45.9988" lon="6.47378">
        <ele>1867.5</ele>
        <time>2022-01-15T12:02:25Z</time>
      </trkpt>
      <trkpt lat="45.99881" lon="6.47383">
        <ele>1867.5</ele>
        <time>2022-01-15T12:02:26Z</time>
      </trkpt>
      <trkpt lat="45.99882" lon="6.47387">
        <ele>1865.09</ele>
        <time>2022-01-15T12:02:27Z</time>
      </trkpt>
      <trkpt lat="45.99882" lon="6.47389">
        <ele>1861.73</ele>
        <time>2022-01-15T12:02:28Z</time>
      </trkpt>
      <trkpt lat="45.99881" lon="6.47391">
        <ele>1861.73</ele>
        <time>2022-01-15T12:02:29Z</time>
      </trkpt>
      <trkpt lat="45.99881" lon="6.47396">
        <ele>1858.85</ele>
        <time>2022-01-15T12:02:31Z</time>
      </trkpt>
      <trkpt lat="45.9988" lon="6.47397">
        <ele>1858.85</ele>
        <time>2022-01-15T12:02:32Z</time>
      </trkpt>
      <trkpt lat="45.99881" lon="6.474">
        <ele>1860.77</ele>
        <time>2022-01-15T12:02:33Z</time>
      </trkpt>
      <trkpt lat="45.99884" lon="6.47413">
        <ele>1855.48</ele>
        <time>2022-01-15T12:02:35Z</time>
      </trkpt>
      <trkpt lat="45.99883" lon="6.47423">
        <ele>1854.04</ele>
        <time>2022-01-15T12:02:37Z</time>
      </trkpt>
      <trkpt lat="45.99885" lon="6.47432">
        <ele>1850.68</ele>
        <time>2022-01-15T12:02:39Z</time>
      </trkpt>
      <trkpt lat="45.99884" lon="6.47433">
        <ele>1850.68</ele>
        <time>2022-01-15T12:02:40Z</time>
      </trkpt>
      <trkpt lat="45.99885" lon="6.47455">
        <ele>1848.27</ele>
        <time>2022-01-15T12:02:46Z</time>
      </trkpt>
      <trkpt lat="45.99885" lon="6.47455">
        <ele>1846.35</ele>
        <time>2022-01-15T12:02:47Z</time>
      </trkpt>
      <trkpt lat="45.99882" lon="6.47469">
        <ele>1842.02</ele>
        <time>2022-01-15T12:02:51Z</time>
      </trkpt>
      <trkpt lat="45.99882" lon="6.47479">
        <ele>1840.1</ele>
        <time>2022-01-15T12:02:53Z</time>
      </trkpt>
      <trkpt lat="45.99882" lon="6.47481">
        <ele>1837.7</ele>
        <time>2022-01-15T12:02:54Z</time>
      </trkpt>
      <trkpt lat="45.99875" lon="6.47493">
        <ele>1835.77</ele>
        <time>2022-01-15T12:02:59Z</time>
      </trkpt>
      <trkpt lat="45.99875" lon="6.47497">
        <ele>1834.33</ele>
        <time>2022-01-15T12:03:01Z</time>
      </trkpt>
      <trkpt lat="45.99874" lon="6.47509">
        <ele>1831.45</ele>
        <time>2022-01-15T12:03:06Z</time>
      </trkpt>
      <trkpt lat="45.99868" lon="6.4752">
        <ele>1827.12</ele>
        <time>2022-01-15T12:03:11Z</time>
      </trkpt>
      <trkpt lat="45.99866" lon="6.47552">
        <ele>1823.76</ele>
        <time>2022-01-15T12:03:19Z</time>
      </trkpt>
      <trkpt lat="45.9986" lon="6.47557">
        <ele>1823.28</ele>
        <time>2022-01-15T12:03:21Z</time>
      </trkpt>
      <trkpt lat="45.99851" lon="6.47561">
        <ele>1823.28</ele>
        <time>2022-01-15T12:03:25Z</time>
      </trkpt>
      <trkpt lat="45.99848" lon="6.47559">
        <ele>1821.84</ele>
        <time>2022-01-15T12:03:27Z</time>
      </trkpt>
      <trkpt lat="45.99842" lon="6.47558">
        <ele>1821.35</ele>
        <time>2022-01-15T12:03:47Z</time>
      </trkpt>
      <trkpt lat="45.99837" lon="6.47553">
        <ele>1821.35</ele>
        <time>2022-01-15T12:04:12Z</time>
      </trkpt>
      <trkpt lat="45.99835" lon="6.47552">
        <ele>1822.8</ele>
        <time>2022-01-15T12:04:29Z</time>
      </trkpt>
      <trkpt lat="45.99834" lon="6.47551">
        <ele>1821.35</ele>
        <time>2022-01-15T12:04:35Z</time>
      </trkpt>
      <trkpt lat="45.99834" lon="6.47551">
        <ele>1823.28</ele>
        <time>2022-01-15T12:04:37Z</time>
      </trkpt>
      <trkpt lat="45.99836" lon="6.47554">
        <ele>1823.28</ele>
        <time>2022-01-15T12:04:58Z</time>
      </trkpt>
      <trkpt lat="45.99837" lon="6.47555">
        <ele>1822.32</ele>
        <time>2022-01-15T12:05:00Z</time>
      </trkpt>
      <trkpt lat="45.9984" lon="6.47557">
        <ele>1822.32</ele>
        <time>2022-01-15T12:05:23Z</time>
      </trkpt>
      <trkpt lat="45.9984" lon="6.47559">
        <ele>1822.8</ele>
        <time>2022-01-15T12:05:40Z</time>
      </trkpt>
      <trkpt lat="45.99847" lon="6.47561">
        <ele>1820.39</ele>
        <time>2022-01-15T12:05:43Z</time>
      </trkpt>
      <trkpt lat="45.99851" lon="6.47564">
        <ele>1824.24</ele>
        <time>2022-01-15T12:05:45Z</time>
      </trkpt>
      <trkpt lat="45.9985" lon="6.47566">
        <ele>1818.95</ele>
        <time>2022-01-15T12:05:46Z</time>
      </trkpt>
      <trkpt lat="45.99851" lon="6.47571">
        <ele>1816.07</ele>
        <time>2022-01-15T12:05:48Z</time>
      </trkpt>
      <trkpt lat="45.99852" lon="6.47573">
        <ele>1816.07</ele>
        <time>2022-01-15T12:05:49Z</time>
      </trkpt>
      <trkpt lat="45.99854" lon="6.47574">
        <ele>1815.11</ele>
        <time>2022-01-15T12:05:50Z</time>
      </trkpt>
      <trkpt lat="45.99859" lon="6.47577">
        <ele>1812.22</ele>
        <time>2022-01-15T12:05:52Z</time>
      </trkpt>
      <trkpt lat="45.99861" lon="6.47589">
        <ele>1806.45</ele>
        <time>2022-01-15T12:05:55Z</time>
      </trkpt>
      <trkpt lat="45.9986" lon="6.4759">
        <ele>1806.45</ele>
        <time>2022-01-15T12:05:56Z</time>
      </trkpt>
      <trkpt lat="45.99843" lon="6.47586">
        <ele>1805.97</ele>
        <time>2022-01-15T12:06:11Z</time>
      </trkpt>
      <trkpt lat="45.99841" lon="6.47582">
        <ele>1805.97</ele>
        <time>2022-01-15T12:06:31Z</time>
      </trkpt>
      <trkpt lat="45.99838" lon="6.47588">
        <ele>1803.57</ele>
        <time>2022-01-15T12:06:36Z</time>
      </trkpt>
      <trkpt lat="45.99846" lon="6.47606">
        <ele>1798.28</ele>
        <time>2022-01-15T12:06:41Z</time>
      </trkpt>
      <trkpt lat="45.99839" lon="6.47602">
        <ele>1796.36</ele>
        <time>2022-01-15T12:06:54Z</time>
      </trkpt>
      <trkpt lat="45.99836" lon="6.47602">
        <ele>1794.44</ele>
        <time>2022-01-15T12:06:58Z</time>
      </trkpt>
      <trkpt lat="45.99831" lon="6.47604">
        <ele>1791.55</ele>
        <time>2022-01-15T12:07:04Z</time>
      </trkpt>
      <trkpt lat="45.99831" lon="6.47604">
        <ele>1791.55</ele>
        <time>2022-01-15T12:07:05Z</time>
      </trkpt>
      <trkpt lat="45.99828" lon="6.47604">
        <ele>1790.11</ele>
        <time>2022-01-15T12:07:15Z</time>
      </trkpt>
      <trkpt lat="45.99827" lon="6.4761">
        <ele>1786.75</ele>
        <time>2022-01-15T12:07:27Z</time>
      </trkpt>
      <trkpt lat="45.99827" lon="6.47612">
        <ele>1785.31</ele>
        <time>2022-01-15T12:07:30Z</time>
      </trkpt>
      <trkpt lat="45.99824" lon="6.47616">
        <ele>1782.9</ele>
        <time>2022-01-15T12:07:33Z</time>
      </trkpt>
      <trkpt lat="45.9982" lon="6.47617">
        <ele>1780.02</ele>
        <time>2022-01-15T12:07:36Z</time>
      </trkpt>
      <trkpt lat="45.99818" lon="6.47617">
        <ele>1780.02</ele>
        <time>2022-01-15T12:07:37Z</time>
      </trkpt>
      <trkpt lat="45.99813" lon="6.47618">
        <ele>1776.17</ele>
        <time>2022-01-15T12:07:42Z</time>
      </trkpt>
      <trkpt lat="45.99807" lon="6.4762">
        <ele>1774.73</ele>
        <time>2022-01-15T12:07:44Z</time>
      </trkpt>
      <trkpt lat="45.99798" lon="6.47623">
        <ele>1773.29</ele>
        <time>2022-01-15T12:07:47Z</time>
      </trkpt>
      <trkpt lat="45.99783" lon="6.47625">
        <ele>1770.41</ele>
        <time>2022-01-15T12:07:52Z</time>
      </trkpt>
      <trkpt lat="45.99755" lon="6.47616">
        <ele>1768</ele>
        <time>2022-01-15T12:08:03Z</time>
      </trkpt>
      <trkpt lat="45.99754" lon="6.47615">
        <ele>1768</ele>
        <time>2022-01-15T12:08:21Z</time>
      </trkpt>
      <trkpt lat="45.99742" lon="6.47623">
        <ele>1764.16</ele>
        <time>2022-01-15T12:08:26Z</time>
      </trkpt>
      <trkpt lat="45.99735" lon="6.47626">
        <ele>1761.27</ele>
        <time>2022-01-15T12:08:28Z</time>
      </trkpt>
      <trkpt lat="45.99721" lon="6.47628">
        <ele>1757.91</ele>
        <time>2022-01-15T12:08:31Z</time>
      </trkpt>
      <trkpt lat="45.99707" lon="6.4763">
        <ele>1754.54</ele>
        <time>2022-01-15T12:08:34Z</time>
      </trkpt>
      <trkpt lat="45.997" lon="6.4763">
        <ele>1753.58</ele>
        <time>2022-01-15T12:08:36Z</time>
      </trkpt>
      <trkpt lat="45.99694" lon="6.47627">
        <ele>1753.1</ele>
        <time>2022-01-15T12:08:48Z</time>
      </trkpt>
      <trkpt lat="45.99692" lon="6.47627">
        <ele>1753.1</ele>
        <time>2022-01-15T12:08:52Z</time>
      </trkpt>
      <trkpt lat="45.99691" lon="6.47627">
        <ele>1753.1</ele>
        <time>2022-01-15T12:08:53Z</time>
      </trkpt>
      <trkpt lat="45.99678" lon="6.47622">
        <ele>1750.7</ele>
        <time>2022-01-15T12:09:03Z</time>
      </trkpt>
      <trkpt lat="45.99677" lon="6.47623">
        <ele>1750.7</ele>
        <time>2022-01-15T12:09:05Z</time>
      </trkpt>
      <trkpt lat="45.99674" lon="6.47622">
        <ele>1749.74</ele>
        <time>2022-01-15T12:09:06Z</time>
      </trkpt>
      <trkpt lat="45.9967" lon="6.47621">
        <ele>1747.81</ele>
        <time>2022-01-15T12:09:07Z</time>
      </trkpt>
      <trkpt lat="45.99666" lon="6.47619">
        <ele>1746.85</ele>
        <time>2022-01-15T12:09:08Z</time>
      </trkpt>
      <trkpt lat="45.99661" lon="6.47617">
        <ele>1746.37</ele>
        <time>2022-01-15T12:09:09Z</time>
      </trkpt>
      <trkpt lat="45.99658" lon="6.47613">
        <ele>1744.93</ele>
        <time>2022-01-15T12:09:10Z</time>
      </trkpt>
      <trkpt lat="45.99654" lon="6.47609">
        <ele>1743.97</ele>
        <time>2022-01-15T12:09:11Z</time>
      </trkpt>
      <trkpt lat="45.99651" lon="6.47605">
        <ele>1743.97</ele>
        <time>2022-01-15T12:09:12Z</time>
      </trkpt>
      <trkpt lat="45.99641" lon="6.47599">
        <ele>1745.41</ele>
        <time>2022-01-15T12:09:20Z</time>
      </trkpt>
      <trkpt lat="45.9964" lon="6.47598">
        <ele>1743.49</ele>
        <time>2022-01-15T12:09:24Z</time>
      </trkpt>
      <trkpt lat="45.99638" lon="6.47594">
        <ele>1745.41</ele>
        <time>2022-01-15T12:09:29Z</time>
      </trkpt>
      <trkpt lat="45.99639" lon="6.47588">
        <ele>1745.89</ele>
        <time>2022-01-15T12:09:47Z</time>
      </trkpt>
      <trkpt lat="45.99638" lon="6.47585">
        <ele>1745.41</ele>
        <time>2022-01-15T12:10:10Z</time>
      </trkpt>
      <trkpt lat="45.99631" lon="6.47568">
        <ele>1743.97</ele>
        <time>2022-01-15T12:10:16Z</time>
      </trkpt>
      <trkpt lat="45.99624" lon="6.47554">
        <ele>1741.57</ele>
        <time>2022-01-15T12:10:20Z</time>
      </trkpt>
      <trkpt lat="45.99611" lon="6.47539">
        <ele>1741.08</ele>
        <time>2022-01-15T12:10:26Z</time>
      </trkpt>
      <trkpt lat="45.99609" lon="6.47539">
        <ele>1742.53</ele>
        <time>2022-01-15T12:10:29Z</time>
      </trkpt>
      <trkpt lat="45.99601" lon="6.4754">
        <ele>1743.97</ele>
        <time>2022-01-15T12:10:47Z</time>
      </trkpt>
      <trkpt lat="45.99594" lon="6.47547">
        <ele>1744.93</ele>
        <time>2022-01-15T12:11:01Z</time>
      </trkpt>
      <trkpt lat="45.99589" lon="6.47554">
        <ele>1744.93</ele>
        <time>2022-01-15T12:11:15Z</time>
      </trkpt>
      <trkpt lat="45.99589" lon="6.47559">
        <ele>1746.37</ele>
        <time>2022-01-15T12:11:27Z</time>
      </trkpt>
      <trkpt lat="45.99588" lon="6.47559">
        <ele>1745.89</ele>
        <time>2022-01-15T12:11:43Z</time>
      </trkpt>
      <trkpt lat="45.99581" lon="6.47551">
        <ele>1746.85</ele>
        <time>2022-01-15T12:11:55Z</time>
      </trkpt>
      <trkpt lat="45.99577" lon="6.47541">
        <ele>1746.85</ele>
        <time>2022-01-15T12:12:10Z</time>
      </trkpt>
      <trkpt lat="45.99577" lon="6.47534">
        <ele>1747.81</ele>
        <time>2022-01-15T12:12:19Z</time>
      </trkpt>
      <trkpt lat="45.99573" lon="6.47523">
        <ele>1748.29</ele>
        <time>2022-01-15T12:12:32Z</time>
      </trkpt>
      <trkpt lat="45.99571" lon="6.47516">
        <ele>1748.29</ele>
        <time>2022-01-15T12:12:42Z</time>
      </trkpt>
      <trkpt lat="45.9957" lon="6.47503">
        <ele>1748.29</ele>
        <time>2022-01-15T12:12:55Z</time>
      </trkpt>
      <trkpt lat="45.99566" lon="6.47488">
        <ele>1748.29</ele>
        <time>2022-01-15T12:13:09Z</time>
      </trkpt>
      <trkpt lat="45.99559" lon="6.47474">
        <ele>1746.85</ele>
        <time>2022-01-15T12:13:20Z</time>
      </trkpt>
      <trkpt lat="45.99549" lon="6.47456">
        <ele>1747.33</ele>
        <time>2022-01-15T12:13:30Z</time>
      </trkpt>
      <trkpt lat="45.99551" lon="6.47437">
        <ele>1742.53</ele>
        <time>2022-01-15T12:13:34Z</time>
      </trkpt>
      <trkpt lat="45.99551" lon="6.47431">
        <ele>1742.53</ele>
        <time>2022-01-15T12:13:35Z</time>
      </trkpt>
      <trkpt lat="45.99551" lon="6.47417">
        <ele>1742.05</ele>
        <time>2022-01-15T12:13:38Z</time>
      </trkpt>
      <trkpt lat="45.99546" lon="6.47413">
        <ele>1740.12</ele>
        <time>2022-01-15T12:13:40Z</time>
      </trkpt>
      <trkpt lat="45.99538" lon="6.47402">
        <ele>1736.28</ele>
        <time>2022-01-15T12:13:44Z</time>
      </trkpt>
      <trkpt lat="45.99535" lon="6.474">
        <ele>1736.28</ele>
        <time>2022-01-15T12:13:45Z</time>
      </trkpt>
      <trkpt lat="45.99525" lon="6.47396">
        <ele>1732.91</ele>
        <time>2022-01-15T12:13:50Z</time>
      </trkpt>
      <trkpt lat="45.99527" lon="6.47386">
        <ele>1731.95</ele>
        <time>2022-01-15T12:13:52Z</time>
      </trkpt>
      <trkpt lat="45.99526" lon="6.47375">
        <ele>1730.99</ele>
        <time>2022-01-15T12:14:01Z</time>
      </trkpt>
      <trkpt lat="45.99527" lon="6.47377">
        <ele>1731.47</ele>
        <time>2022-01-15T12:14:21Z</time>
      </trkpt>
      <trkpt lat="45.9953" lon="6.47379">
        <ele>1730.99</ele>
        <time>2022-01-15T12:14:50Z</time>
      </trkpt>
      <trkpt lat="45.99526" lon="6.47377">
        <ele>1730.99</ele>
        <time>2022-01-15T12:15:16Z</time>
      </trkpt>
      <trkpt lat="45.99509" lon="6.47372">
        <ele>1726.18</ele>
        <time>2022-01-15T12:15:21Z</time>
      </trkpt>
      <trkpt lat="45.99498" lon="6.47358">
        <ele>1722.34</ele>
        <time>2022-01-15T12:15:24Z</time>
      </trkpt>
      <trkpt lat="45.99496" lon="6.47353">
        <ele>1718.01</ele>
        <time>2022-01-15T12:15:25Z</time>
      </trkpt>
      <trkpt lat="45.99496" lon="6.47348">
        <ele>1718.01</ele>
        <time>2022-01-15T12:15:26Z</time>
      </trkpt>
      <trkpt lat="45.99491" lon="6.47341">
        <ele>1716.09</ele>
        <time>2022-01-15T12:15:28Z</time>
      </trkpt>
      <trkpt lat="45.99479" lon="6.4734">
        <ele>1708.88</ele>
        <time>2022-01-15T12:15:32Z</time>
      </trkpt>
      <trkpt lat="45.99472" lon="6.4735">
        <ele>1707.44</ele>
        <time>2022-01-15T12:15:34Z</time>
      </trkpt>
      <trkpt lat="45.99466" lon="6.47353">
        <ele>1707.44</ele>
        <time>2022-01-15T12:15:36Z</time>
      </trkpt>
      <trkpt lat="45.99459" lon="6.47355">
        <ele>1706</ele>
        <time>2022-01-15T12:15:38Z</time>
      </trkpt>
      <trkpt lat="45.99453" lon="6.47357">
        <ele>1704.55</ele>
        <time>2022-01-15T12:15:40Z</time>
      </trkpt>
      <trkpt lat="45.99449" lon="6.47358">
        <ele>1704.55</ele>
        <time>2022-01-15T12:15:41Z</time>
      </trkpt>
      <trkpt lat="45.9944" lon="6.47349">
        <ele>1701.19</ele>
        <time>2022-01-15T12:15:46Z</time>
      </trkpt>
      <trkpt lat="45.99437" lon="6.47347">
        <ele>1699.75</ele>
        <time>2022-01-15T12:15:47Z</time>
      </trkpt>
      <trkpt lat="45.99423" lon="6.4735">
        <ele>1697.34</ele>
        <time>2022-01-15T12:15:51Z</time>
      </trkpt>
      <trkpt lat="45.9941" lon="6.47351">
        <ele>1694.46</ele>
        <time>2022-01-15T12:15:54Z</time>
      </trkpt>
      <trkpt lat="45.99392" lon="6.47356">
        <ele>1692.54</ele>
        <time>2022-01-15T12:15:57Z</time>
      </trkpt>
      <trkpt lat="45.99382" lon="6.47358">
        <ele>1691.1</ele>
        <time>2022-01-15T12:15:59Z</time>
      </trkpt>
      <trkpt lat="45.99362" lon="6.47358">
        <ele>1689.17</ele>
        <time>2022-01-15T12:16:04Z</time>
      </trkpt>
      <trkpt lat="45.99335" lon="6.47359">
        <ele>1686.77</ele>
        <time>2022-01-15T12:16:11Z</time>
      </trkpt>
      <trkpt lat="45.99321" lon="6.47363">
        <ele>1685.33</ele>
        <time>2022-01-15T12:16:14Z</time>
      </trkpt>
      <trkpt lat="45.99317" lon="6.47365">
        <ele>1684.85</ele>
        <time>2022-01-15T12:16:16Z</time>
      </trkpt>
      <trkpt lat="45.99317" lon="6.47365">
        <ele>1684.85</ele>
        <time>2022-01-15T12:16:30Z</time>
      </trkpt>
      <trkpt lat="45.99317" lon="6.47365">
        <ele>1684.85</ele>
        <time>2022-01-15T12:16:31Z</time>
      </trkpt>
      <trkpt lat="45.99315" lon="6.47364">
        <ele>1684.85</ele>
        <time>2022-01-15T12:16:40Z</time>
      </trkpt>
      <trkpt lat="45.99313" lon="6.47368">
        <ele>1686.29</ele>
        <time>2022-01-15T12:16:43Z</time>
      </trkpt>
      <trkpt lat="45.99304" lon="6.47393">
        <ele>1683.41</ele>
        <time>2022-01-15T12:16:54Z</time>
      </trkpt>
      <trkpt lat="45.99304" lon="6.47394">
        <ele>1681.96</ele>
        <time>2022-01-15T12:17:08Z</time>
      </trkpt>
      <trkpt lat="45.99303" lon="6.47412">
        <ele>1681</ele>
        <time>2022-01-15T12:17:14Z</time>
      </trkpt>
      <trkpt lat="45.99295" lon="6.47403">
        <ele>1679.08</ele>
        <time>2022-01-15T12:17:19Z</time>
      </trkpt>
      <trkpt lat="45.99292" lon="6.47378">
        <ele>1675.23</ele>
        <time>2022-01-15T12:17:25Z</time>
      </trkpt>
      <trkpt lat="45.9929" lon="6.47378">
        <ele>1675.23</ele>
        <time>2022-01-15T12:17:26Z</time>
      </trkpt>
      <trkpt lat="45.99277" lon="6.47375">
        <ele>1671.39</ele>
        <time>2022-01-15T12:17:30Z</time>
      </trkpt>
      <trkpt lat="45.99275" lon="6.47364">
        <ele>1670.91</ele>
        <time>2022-01-15T12:17:32Z</time>
      </trkpt>
      <trkpt lat="45.99267" lon="6.47374">
        <ele>1667.06</ele>
        <time>2022-01-15T12:17:35Z</time>
      </trkpt>
      <trkpt lat="45.9926" lon="6.47372">
        <ele>1663.22</ele>
        <time>2022-01-15T12:17:38Z</time>
      </trkpt>
      <trkpt lat="45.99256" lon="6.47369">
        <ele>1663.22</ele>
        <time>2022-01-15T12:17:39Z</time>
      </trkpt>
      <trkpt lat="45.99244" lon="6.47381">
        <ele>1659.37</ele>
        <time>2022-01-15T12:17:44Z</time>
      </trkpt>
      <trkpt lat="45.99241" lon="6.47376">
        <ele>1658.41</ele>
        <time>2022-01-15T12:17:46Z</time>
      </trkpt>
      <trkpt lat="45.99236" lon="6.47375">
        <ele>1656.49</ele>
        <time>2022-01-15T12:17:48Z</time>
      </trkpt>
      <trkpt lat="45.99234" lon="6.47391">
        <ele>1652.16</ele>
        <time>2022-01-15T12:17:53Z</time>
      </trkpt>
      <trkpt lat="45.99223" lon="6.47386">
        <ele>1647.84</ele>
        <time>2022-01-15T12:17:57Z</time>
      </trkpt>
      <trkpt lat="45.99221" lon="6.4739">
        <ele>1646.88</ele>
        <time>2022-01-15T12:17:58Z</time>
      </trkpt>
      <trkpt lat="45.99221" lon="6.47394">
        <ele>1645.91</ele>
        <time>2022-01-15T12:17:59Z</time>
      </trkpt>
      <trkpt lat="45.9922" lon="6.47395">
        <ele>1644.47</ele>
        <time>2022-01-15T12:18:00Z</time>
      </trkpt>
      <trkpt lat="45.99216" lon="6.4739">
        <ele>1643.03</ele>
        <time>2022-01-15T12:18:02Z</time>
      </trkpt>
      <trkpt lat="45.99217" lon="6.47389">
        <ele>1642.07</ele>
        <time>2022-01-15T12:18:05Z</time>
      </trkpt>
      <trkpt lat="45.99217" lon="6.47399">
        <ele>1642.07</ele>
        <time>2022-01-15T12:18:10Z</time>
      </trkpt>
      <trkpt lat="45.99217" lon="6.47404">
        <ele>1639.19</ele>
        <time>2022-01-15T12:18:11Z</time>
      </trkpt>
      <trkpt lat="45.99217" lon="6.47409">
        <ele>1638.7</ele>
        <time>2022-01-15T12:18:12Z</time>
      </trkpt>
      <trkpt lat="45.99217" lon="6.47412">
        <ele>1638.7</ele>
        <time>2022-01-15T12:18:13Z</time>
      </trkpt>
      <trkpt lat="45.99216" lon="6.47416">
        <ele>1636.3</ele>
        <time>2022-01-15T12:18:14Z</time>
      </trkpt>
      <trkpt lat="45.99216" lon="6.4742">
        <ele>1635.82</ele>
        <time>2022-01-15T12:18:15Z</time>
      </trkpt>
      <trkpt lat="45.99218" lon="6.47422">
        <ele>1635.34</ele>
        <time>2022-01-15T12:18:16Z</time>
      </trkpt>
      <trkpt lat="45.99221" lon="6.47424">
        <ele>1635.34</ele>
        <time>2022-01-15T12:18:17Z</time>
      </trkpt>
      <trkpt lat="45.99221" lon="6.47427">
        <ele>1635.34</ele>
        <time>2022-01-15T12:18:18Z</time>
      </trkpt>
      <trkpt lat="45.99221" lon="6.47433">
        <ele>1632.94</ele>
        <time>2022-01-15T12:18:19Z</time>
      </trkpt>
      <trkpt lat="45.99222" lon="6.47441">
        <ele>1631.98</ele>
        <time>2022-01-15T12:18:20Z</time>
      </trkpt>
      <trkpt lat="45.99224" lon="6.47451">
        <ele>1629.09</ele>
        <time>2022-01-15T12:18:21Z</time>
      </trkpt>
      <trkpt lat="45.99226" lon="6.47461">
        <ele>1629.09</ele>
        <time>2022-01-15T12:18:22Z</time>
      </trkpt>
      <trkpt lat="45.99227" lon="6.47469">
        <ele>1627.65</ele>
        <time>2022-01-15T12:18:23Z</time>
      </trkpt>
      <trkpt lat="45.99234" lon="6.47499">
        <ele>1625.25</ele>
        <time>2022-01-15T12:18:27Z</time>
      </trkpt>
      <trkpt lat="45.99234" lon="6.47504">
        <ele>1627.65</ele>
        <time>2022-01-15T12:18:28Z</time>
      </trkpt>
      <trkpt lat="45.99232" lon="6.47507">
        <ele>1621.88</ele>
        <time>2022-01-15T12:18:30Z</time>
      </trkpt>
      <trkpt lat="45.99229" lon="6.47511">
        <ele>1621.4</ele>
        <time>2022-01-15T12:18:31Z</time>
      </trkpt>
      <trkpt lat="45.99228" lon="6.47517">
        <ele>1618.52</ele>
        <time>2022-01-15T12:18:32Z</time>
      </trkpt>
      <trkpt lat="45.99228" lon="6.47522">
        <ele>1619.96</ele>
        <time>2022-01-15T12:18:33Z</time>
      </trkpt>
      <trkpt lat="45.99226" lon="6.47526">
        <ele>1617.56</ele>
        <time>2022-01-15T12:18:34Z</time>
      </trkpt>
      <trkpt lat="45.99224" lon="6.47531">
        <ele>1616.59</ele>
        <time>2022-01-15T12:18:35Z</time>
      </trkpt>
      <trkpt lat="45.99222" lon="6.47536">
        <ele>1616.11</ele>
        <time>2022-01-15T12:18:36Z</time>
      </trkpt>
      <trkpt lat="45.99221" lon="6.47541">
        <ele>1615.63</ele>
        <time>2022-01-15T12:18:37Z</time>
      </trkpt>
      <trkpt lat="45.9922" lon="6.47544">
        <ele>1615.63</ele>
        <time>2022-01-15T12:18:38Z</time>
      </trkpt>
      <trkpt lat="45.99216" lon="6.47545">
        <ele>1617.56</ele>
        <time>2022-01-15T12:18:49Z</time>
      </trkpt>
      <trkpt lat="45.99215" lon="6.47542">
        <ele>1617.56</ele>
        <time>2022-01-15T12:19:19Z</time>
      </trkpt>
      <trkpt lat="45.99213" lon="6.47541">
        <ele>1616.11</ele>
        <time>2022-01-15T12:19:23Z</time>
      </trkpt>
      <trkpt lat="45.99215" lon="6.47541">
        <ele>1615.63</ele>
        <time>2022-01-15T12:19:43Z</time>
      </trkpt>
      <trkpt lat="45.99214" lon="6.4754">
        <ele>1615.63</ele>
        <time>2022-01-15T12:19:44Z</time>
      </trkpt>
      <trkpt lat="45.99203" lon="6.47518">
        <ele>1614.19</ele>
        <time>2022-01-15T12:19:54Z</time>
      </trkpt>
      <trkpt lat="45.99201" lon="6.47514">
        <ele>1615.63</ele>
        <time>2022-01-15T12:19:56Z</time>
      </trkpt>
      <trkpt lat="45.99189" lon="6.47493">
        <ele>1613.23</ele>
        <time>2022-01-15T12:20:03Z</time>
      </trkpt>
      <trkpt lat="45.99186" lon="6.47494">
        <ele>1613.23</ele>
        <time>2022-01-15T12:20:04Z</time>
      </trkpt>
      <trkpt lat="45.99184" lon="6.47495">
        <ele>1612.75</ele>
        <time>2022-01-15T12:20:05Z</time>
      </trkpt>
      <trkpt lat="45.99181" lon="6.47496">
        <ele>1613.23</ele>
        <time>2022-01-15T12:20:06Z</time>
      </trkpt>
      <trkpt lat="45.99177" lon="6.47497">
        <ele>1613.23</ele>
        <time>2022-01-15T12:20:07Z</time>
      </trkpt>
      <trkpt lat="45.99174" lon="6.47494">
        <ele>1611.31</ele>
        <time>2022-01-15T12:20:08Z</time>
      </trkpt>
      <trkpt lat="45.99173" lon="6.47489">
        <ele>1609.38</ele>
        <time>2022-01-15T12:20:09Z</time>
      </trkpt>
      <trkpt lat="45.99171" lon="6.47484">
        <ele>1609.38</ele>
        <time>2022-01-15T12:20:10Z</time>
      </trkpt>
      <trkpt lat="45.99167" lon="6.47482">
        <ele>1607.94</ele>
        <time>2022-01-15T12:20:11Z</time>
      </trkpt>
      <trkpt lat="45.99163" lon="6.4748">
        <ele>1607.94</ele>
        <time>2022-01-15T12:20:12Z</time>
      </trkpt>
      <trkpt lat="45.9916" lon="6.47475">
        <ele>1606.98</ele>
        <time>2022-01-15T12:20:13Z</time>
      </trkpt>
      <trkpt lat="45.99159" lon="6.47469">
        <ele>1604.1</ele>
        <time>2022-01-15T12:20:14Z</time>
      </trkpt>
      <trkpt lat="45.99158" lon="6.47461">
        <ele>1604.1</ele>
        <time>2022-01-15T12:20:15Z</time>
      </trkpt>
      <trkpt lat="45.99156" lon="6.47453">
        <ele>1602.66</ele>
        <time>2022-01-15T12:20:16Z</time>
      </trkpt>
      <trkpt lat="45.99151" lon="6.47447">
        <ele>1602.66</ele>
        <time>2022-01-15T12:20:17Z</time>
      </trkpt>
      <trkpt lat="45.99146" lon="6.4744">
        <ele>1599.77</ele>
        <time>2022-01-15T12:20:18Z</time>
      </trkpt>
      <trkpt lat="45.9914" lon="6.47433">
        <ele>1599.77</ele>
        <time>2022-01-15T12:20:19Z</time>
      </trkpt>
      <trkpt lat="45.99133" lon="6.47427">
        <ele>1596.89</ele>
        <time>2022-01-15T12:20:20Z</time>
      </trkpt>
      <trkpt lat="45.99116" lon="6.47407">
        <ele>1592.08</ele>
        <time>2022-01-15T12:20:23Z</time>
      </trkpt>
      <trkpt lat="45.99111" lon="6.47401">
        <ele>1592.08</ele>
        <time>2022-01-15T12:20:24Z</time>
      </trkpt>
      <trkpt lat="45.99101" lon="6.4739">
        <ele>1589.2</ele>
        <time>2022-01-15T12:20:26Z</time>
      </trkpt>
      <trkpt lat="45.99081" lon="6.47372">
        <ele>1585.83</ele>
        <time>2022-01-15T12:20:30Z</time>
      </trkpt>
      <trkpt lat="45.99072" lon="6.47363">
        <ele>1584.87</ele>
        <time>2022-01-15T12:20:32Z</time>
      </trkpt>
      <trkpt lat="45.99067" lon="6.47357">
        <ele>1583.43</ele>
        <time>2022-01-15T12:20:33Z</time>
      </trkpt>
      <trkpt lat="45.99051" lon="6.47332">
        <ele>1582.95</ele>
        <time>2022-01-15T12:20:37Z</time>
      </trkpt>
      <trkpt lat="45.99044" lon="6.47315">
        <ele>1581.51</ele>
        <time>2022-01-15T12:20:40Z</time>
      </trkpt>
      <trkpt lat="45.9903" lon="6.47294">
        <ele>1581.03</ele>
        <time>2022-01-15T12:20:50Z</time>
      </trkpt>
      <trkpt lat="45.99028" lon="6.47291">
        <ele>1581.03</ele>
        <time>2022-01-15T12:21:07Z</time>
      </trkpt>
      <trkpt lat="45.99018" lon="6.47289">
        <ele>1581.99</ele>
        <time>2022-01-15T12:21:23Z</time>
      </trkpt>
      <trkpt lat="45.99016" lon="6.47281">
        <ele>1578.62</ele>
        <time>2022-01-15T12:21:25Z</time>
      </trkpt>
      <trkpt lat="45.9901" lon="6.47266">
        <ele>1575.74</ele>
        <time>2022-01-15T12:21:28Z</time>
      </trkpt>
      <trkpt lat="45.99008" lon="6.47263">
        <ele>1575.74</ele>
        <time>2022-01-15T12:21:29Z</time>
      </trkpt>
      <trkpt lat="45.99004" lon="6.47255">
        <ele>1573.82</ele>
        <time>2022-01-15T12:21:31Z</time>
      </trkpt>
      <trkpt lat="45.99003" lon="6.4725">
        <ele>1571.89</ele>
        <time>2022-01-15T12:21:32Z</time>
      </trkpt>
      <trkpt lat="45.98995" lon="6.47239">
        <ele>1569.49</ele>
        <time>2022-01-15T12:21:37Z</time>
      </trkpt>
      <trkpt lat="45.98997" lon="6.47245">
        <ele>1569.01</ele>
        <time>2022-01-15T12:22:02Z</time>
      </trkpt>
      <trkpt lat="45.98995" lon="6.47234">
        <ele>1565.64</ele>
        <time>2022-01-15T12:22:06Z</time>
      </trkpt>
      <trkpt lat="45.99002" lon="6.47221">
        <ele>1559.88</ele>
        <time>2022-01-15T12:22:10Z</time>
      </trkpt>
      <trkpt lat="45.99006" lon="6.47221">
        <ele>1555.55</ele>
        <time>2022-01-15T12:22:12Z</time>
      </trkpt>
      <trkpt lat="45.99013" lon="6.4722">
        <ele>1551.22</ele>
        <time>2022-01-15T12:22:14Z</time>
      </trkpt>
      <trkpt lat="45.99021" lon="6.47199">
        <ele>1545.94</ele>
        <time>2022-01-15T12:22:17Z</time>
      </trkpt>
      <trkpt lat="45.99018" lon="6.47191">
        <ele>1545.94</ele>
        <time>2022-01-15T12:22:18Z</time>
      </trkpt>
      <trkpt lat="45.99011" lon="6.47183">
        <ele>1546.42</ele>
        <time>2022-01-15T12:22:24Z</time>
      </trkpt>
      <trkpt lat="45.98992" lon="6.47158">
        <ele>1544.5</ele>
        <time>2022-01-15T12:22:35Z</time>
      </trkpt>
      <trkpt lat="45.98974" lon="6.47127">
        <ele>1540.17</ele>
        <time>2022-01-15T12:22:47Z</time>
      </trkpt>
      <trkpt lat="45.98969" lon="6.47114">
        <ele>1537.29</ele>
        <time>2022-01-15T12:22:49Z</time>
      </trkpt>
      <trkpt lat="45.98965" lon="6.47108">
        <ele>1537.29</ele>
        <time>2022-01-15T12:22:50Z</time>
      </trkpt>
      <trkpt lat="45.98956" lon="6.47095">
        <ele>1534.4</ele>
        <time>2022-01-15T12:22:52Z</time>
      </trkpt>
      <trkpt lat="45.98925" lon="6.47075">
        <ele>1532</ele>
        <time>2022-01-15T12:22:57Z</time>
      </trkpt>
      <trkpt lat="45.98912" lon="6.47068">
        <ele>1531.04</ele>
        <time>2022-01-15T12:23:02Z</time>
      </trkpt>
      <trkpt lat="45.98895" lon="6.47062">
        <ele>1525.27</ele>
        <time>2022-01-15T12:23:06Z</time>
      </trkpt>
      <trkpt lat="45.9889" lon="6.47061">
        <ele>1524.79</ele>
        <time>2022-01-15T12:23:07Z</time>
      </trkpt>
      <trkpt lat="45.98885" lon="6.47062">
        <ele>1524.31</ele>
        <time>2022-01-15T12:23:08Z</time>
      </trkpt>
      <trkpt lat="45.98879" lon="6.47065">
        <ele>1524.31</ele>
        <time>2022-01-15T12:23:09Z</time>
      </trkpt>
      <trkpt lat="45.98869" lon="6.47073">
        <ele>1522.39</ele>
        <time>2022-01-15T12:23:11Z</time>
      </trkpt>
      <trkpt lat="45.98864" lon="6.47076">
        <ele>1522.39</ele>
        <time>2022-01-15T12:23:12Z</time>
      </trkpt>
      <trkpt lat="45.98859" lon="6.47078">
        <ele>1520.46</ele>
        <time>2022-01-15T12:23:13Z</time>
      </trkpt>
      <trkpt lat="45.98853" lon="6.47079">
        <ele>1520.46</ele>
        <time>2022-01-15T12:23:14Z</time>
      </trkpt>
      <trkpt lat="45.98842" lon="6.47081">
        <ele>1519.02</ele>
        <time>2022-01-15T12:23:16Z</time>
      </trkpt>
      <trkpt lat="45.98809" lon="6.47082">
        <ele>1517.58</ele>
        <time>2022-01-15T12:23:26Z</time>
      </trkpt>
      <trkpt lat="45.98801" lon="6.47079">
        <ele>1517.1</ele>
        <time>2022-01-15T12:23:29Z</time>
      </trkpt>
      <trkpt lat="45.98796" lon="6.47074">
        <ele>1518.06</ele>
        <time>2022-01-15T12:23:32Z</time>
      </trkpt>
      <trkpt lat="45.98797" lon="6.47075">
        <ele>1516.62</ele>
        <time>2022-01-15T12:23:49Z</time>
      </trkpt>
      <trkpt lat="45.98797" lon="6.47075">
        <ele>1516.14</ele>
        <time>2022-01-15T12:24:12Z</time>
      </trkpt>
      <trkpt lat="45.98798" lon="6.47076">
        <ele>1516.14</ele>
        <time>2022-01-15T12:24:38Z</time>
      </trkpt>
      <trkpt lat="45.98796" lon="6.47078">
        <ele>1516.14</ele>
        <time>2022-01-15T12:25:07Z</time>
      </trkpt>
      <trkpt lat="45.98795" lon="6.47077">
        <ele>1516.14</ele>
        <time>2022-01-15T12:25:08Z</time>
      </trkpt>
      <trkpt lat="45.98794" lon="6.47076">
        <ele>1516.14</ele>
        <time>2022-01-15T12:25:09Z</time>
      </trkpt>
      <trkpt lat="45.98793" lon="6.47075">
        <ele>1516.14</ele>
        <time>2022-01-15T12:25:10Z</time>
      </trkpt>
      <trkpt lat="45.98791" lon="6.47074">
        <ele>1515.18</ele>
        <time>2022-01-15T12:25:11Z</time>
      </trkpt>
      <trkpt lat="45.98789" lon="6.47072">
        <ele>1515.18</ele>
        <time>2022-01-15T12:25:12Z</time>
      </trkpt>
      <trkpt lat="45.98771" lon="6.4705">
        <ele>1513.25</ele>
        <time>2022-01-15T12:25:20Z</time>
      </trkpt>
      <trkpt lat="45.98747" lon="6.4701">
        <ele>1509.89</ele>
        <time>2022-01-15T12:25:28Z</time>
      </trkpt>
      <trkpt lat="45.9874" lon="6.46998">
        <ele>1508.45</ele>
        <time>2022-01-15T12:25:30Z</time>
      </trkpt>
      <trkpt lat="45.98719" lon="6.4696">
        <ele>1505.56</ele>
        <time>2022-01-15T12:25:36Z</time>
      </trkpt>
      <trkpt lat="45.98715" lon="6.46953">
        <ele>1505.56</ele>
        <time>2022-01-15T12:25:37Z</time>
      </trkpt>
      <trkpt lat="45.98706" lon="6.46934">
        <ele>1504.12</ele>
        <time>2022-01-15T12:25:40Z</time>
      </trkpt>
      <trkpt lat="45.98684" lon="6.46885">
        <ele>1501.24</ele>
        <time>2022-01-15T12:25:47Z</time>
      </trkpt>
      <trkpt lat="45.98668" lon="6.46849">
        <ele>1497.39</ele>
        <time>2022-01-15T12:25:52Z</time>
      </trkpt>
      <trkpt lat="45.98657" lon="6.46819">
        <ele>1496.43</ele>
        <time>2022-01-15T12:25:56Z</time>
      </trkpt>
      <trkpt lat="45.98648" lon="6.46788">
        <ele>1494.51</ele>
        <time>2022-01-15T12:26:00Z</time>
      </trkpt>
      <trkpt lat="45.98615" lon="6.4672">
        <ele>1491.14</ele>
        <time>2022-01-15T12:26:10Z</time>
      </trkpt>
      <trkpt lat="45.98601" lon="6.46694">
        <ele>1490.18</ele>
        <time>2022-01-15T12:26:14Z</time>
      </trkpt>
      <trkpt lat="45.98588" lon="6.46675">
        <ele>1485.85</ele>
        <time>2022-01-15T12:26:17Z</time>
      </trkpt>
      <trkpt lat="45.98583" lon="6.46669">
        <ele>1485.85</ele>
        <time>2022-01-15T12:26:18Z</time>
      </trkpt>
      <trkpt lat="45.98546" lon="6.46631">
        <ele>1482.97</ele>
        <time>2022-01-15T12:26:26Z</time>
      </trkpt>
      <trkpt lat="45.9851" lon="6.46606">
        <ele>1480.57</ele>
        <time>2022-01-15T12:26:32Z</time>
      </trkpt>
      <trkpt lat="45.98496" lon="6.46601">
        <ele>1479.13</ele>
        <time>2022-01-15T12:26:34Z</time>
      </trkpt>
      <trkpt lat="45.98476" lon="6.46593">
        <ele>1476.24</ele>
        <time>2022-01-15T12:26:37Z</time>
      </trkpt>
      <trkpt lat="45.98451" lon="6.46584">
        <ele>1473.84</ele>
        <time>2022-01-15T12:26:41Z</time>
      </trkpt>
      <trkpt lat="45.98403" lon="6.4657">
        <ele>1470.47</ele>
        <time>2022-01-15T12:26:49Z</time>
      </trkpt>
      <trkpt lat="45.9839" lon="6.46566">
        <ele>1468.55</ele>
        <time>2022-01-15T12:26:51Z</time>
      </trkpt>
      <trkpt lat="45.9835" lon="6.46551">
        <ele>1465.67</ele>
        <time>2022-01-15T12:26:57Z</time>
      </trkpt>
      <trkpt lat="45.9833" lon="6.46545">
        <ele>1463.26</ele>
        <time>2022-01-15T12:27:00Z</time>
      </trkpt>
      <trkpt lat="45.98297" lon="6.46533">
        <ele>1460.38</ele>
        <time>2022-01-15T12:27:05Z</time>
      </trkpt>
      <trkpt lat="45.9829" lon="6.46533">
        <ele>1459.42</ele>
        <time>2022-01-15T12:27:06Z</time>
      </trkpt>
      <trkpt lat="45.98284" lon="6.46534">
        <ele>1459.42</ele>
        <time>2022-01-15T12:27:07Z</time>
      </trkpt>
      <trkpt lat="45.98278" lon="6.46535">
        <ele>1459.42</ele>
        <time>2022-01-15T12:27:08Z</time>
      </trkpt>
      <trkpt lat="45.98273" lon="6.46536">
        <ele>1458.46</ele>
        <time>2022-01-15T12:27:09Z</time>
      </trkpt>
      <trkpt lat="45.98267" lon="6.46536">
        <ele>1458.46</ele>
        <time>2022-01-15T12:27:10Z</time>
      </trkpt>
      <trkpt lat="45.98261" lon="6.46536">
        <ele>1456.05</ele>
        <time>2022-01-15T12:27:11Z</time>
      </trkpt>
      <trkpt lat="45.98256" lon="6.46537">
        <ele>1457.98</ele>
        <time>2022-01-15T12:27:12Z</time>
      </trkpt>
      <trkpt lat="45.9825" lon="6.46538">
        <ele>1456.53</ele>
        <time>2022-01-15T12:27:13Z</time>
      </trkpt>
      <trkpt lat="45.98214" lon="6.46549">
        <ele>1454.61</ele>
        <time>2022-01-15T12:27:19Z</time>
      </trkpt>
      <trkpt lat="45.98198" lon="6.46556">
        <ele>1452.69</ele>
        <time>2022-01-15T12:27:22Z</time>
      </trkpt>
      <trkpt lat="45.98169" lon="6.46561">
        <ele>1448.84</ele>
        <time>2022-01-15T12:27:27Z</time>
      </trkpt>
      <trkpt lat="45.98122" lon="6.46574">
        <ele>1444.04</ele>
        <time>2022-01-15T12:27:34Z</time>
      </trkpt>
      <trkpt lat="45.98115" lon="6.46576">
        <ele>1444.04</ele>
        <time>2022-01-15T12:27:35Z</time>
      </trkpt>
      <trkpt lat="45.98101" lon="6.46579">
        <ele>1442.6</ele>
        <time>2022-01-15T12:27:37Z</time>
      </trkpt>
      <trkpt lat="45.98055" lon="6.46592">
        <ele>1438.75</ele>
        <time>2022-01-15T12:27:44Z</time>
      </trkpt>
      <trkpt lat="45.98024" lon="6.46602">
        <ele>1435.87</ele>
        <time>2022-01-15T12:27:49Z</time>
      </trkpt>
      <trkpt lat="45.98018" lon="6.46606">
        <ele>1435.87</ele>
        <time>2022-01-15T12:27:50Z</time>
      </trkpt>
      <trkpt lat="45.98013" lon="6.4661">
        <ele>1435.39</ele>
        <time>2022-01-15T12:27:51Z</time>
      </trkpt>
      <trkpt lat="45.97991" lon="6.46628">
        <ele>1432.02</ele>
        <time>2022-01-15T12:27:55Z</time>
      </trkpt>
      <trkpt lat="45.97986" lon="6.46633">
        <ele>1432.02</ele>
        <time>2022-01-15T12:27:56Z</time>
      </trkpt>
      <trkpt lat="45.97981" lon="6.46638">
        <ele>1432.5</ele>
        <time>2022-01-15T12:27:57Z</time>
      </trkpt>
      <trkpt lat="45.97965" lon="6.46653">
        <ele>1431.06</ele>
        <time>2022-01-15T12:28:00Z</time>
      </trkpt>
      <trkpt lat="45.97955" lon="6.46664">
        <ele>1429.62</ele>
        <time>2022-01-15T12:28:02Z</time>
      </trkpt>
      <trkpt lat="45.97933" lon="6.46683">
        <ele>1424.81</ele>
        <time>2022-01-15T12:28:06Z</time>
      </trkpt>
      <trkpt lat="45.97928" lon="6.46688">
        <ele>1426.25</ele>
        <time>2022-01-15T12:28:07Z</time>
      </trkpt>
      <trkpt lat="45.97903" lon="6.46713">
        <ele>1422.89</ele>
        <time>2022-01-15T12:28:12Z</time>
      </trkpt>
      <trkpt lat="45.97899" lon="6.46719">
        <ele>1422.41</ele>
        <time>2022-01-15T12:28:13Z</time>
      </trkpt>
      <trkpt lat="45.97889" lon="6.46737">
        <ele>1421.93</ele>
        <time>2022-01-15T12:28:16Z</time>
      </trkpt>
      <trkpt lat="45.97879" lon="6.46763">
        <ele>1420.49</ele>
        <time>2022-01-15T12:28:20Z</time>
      </trkpt>
      <trkpt lat="45.97859" lon="6.46817">
        <ele>1417.12</ele>
        <time>2022-01-15T12:28:29Z</time>
      </trkpt>
      <trkpt lat="45.97856" lon="6.46823">
        <ele>1417.12</ele>
        <time>2022-01-15T12:28:30Z</time>
      </trkpt>
      <trkpt lat="45.97842" lon="6.46849">
        <ele>1416.16</ele>
        <time>2022-01-15T12:28:35Z</time>
      </trkpt>
      <trkpt lat="45.97836" lon="6.46858">
        <ele>1416.16</ele>
        <time>2022-01-15T12:28:37Z</time>
      </trkpt>
      <trkpt lat="45.97804" lon="6.46892">
        <ele>1412.79</ele>
        <time>2022-01-15T12:28:47Z</time>
      </trkpt>
      <trkpt lat="45.97788" lon="6.46896">
        <ele>1411.83</ele>
        <time>2022-01-15T12:28:56Z</time>
      </trkpt>
      <trkpt lat="45.97786" lon="6.46896">
        <ele>1410.87</ele>
        <time>2022-01-15T12:29:07Z</time>
      </trkpt>
      <trkpt lat="45.97786" lon="6.46896">
        <ele>1412.31</ele>
        <time>2022-01-15T12:29:21Z</time>
      </trkpt>
      <trkpt lat="45.97786" lon="6.46895">
        <ele>1410.39</ele>
        <time>2022-01-15T12:29:24Z</time>
      </trkpt>
      <trkpt lat="45.97785" lon="6.46891">
        <ele>1410.39</ele>
        <time>2022-01-15T12:29:44Z</time>
      </trkpt>
      <trkpt lat="45.97782" lon="6.46889">
        <ele>1409.91</ele>
        <time>2022-01-15T12:30:00Z</time>
      </trkpt>
      <trkpt lat="45.97783" lon="6.46893">
        <ele>1411.35</ele>
        <time>2022-01-15T12:30:20Z</time>
      </trkpt>
      <trkpt lat="45.97783" lon="6.46894">
        <ele>1411.35</ele>
        <time>2022-01-15T12:30:36Z</time>
      </trkpt>
      <trkpt lat="45.97783" lon="6.46892">
        <ele>1409.43</ele>
        <time>2022-01-15T12:30:41Z</time>
      </trkpt>
      <trkpt lat="45.97782" lon="6.46892">
        <ele>1410.87</ele>
        <time>2022-01-15T12:30:46Z</time>
      </trkpt>
    </trkseg>
  </trk>
</gpx>